<?xml version="1.0" encoding="UTF-8" standalone="no" ?>
<gpx xmlns="http://www.topografix.com/GPX/1/1" xmlns:xsi="http://www.w3.org/2001/XMLSchema-instance" xsi:schemaLocation="http://www.topografix.com/GPX/1/1 http://www.topografix.com/GPX/1/1/gpx.xsd" version="1.1" creator="VisuGPX - https://www.visugpx.com">
  <metadata>
    <name>3 jours en Beaufortain 2018</name>
    <desc><![CDATA[3 jours en Beaufortain 2018 depuis le refuge de La Balme]]></desc>
  </metadata>
  <trk>
    <name><![CDATA[CERDOSSE]]></name>
    <trkseg>
      <trkpt lat="45.632" lon="6.669">
        <ele>2021.31</ele>
        <time>2018-02-06T11:17:44Z</time>
      </trkpt>
      <trkpt lat="45.632" lon="6.669">
        <ele>2021.31</ele>
        <time>2018-02-06T11:17:45Z</time>
      </trkpt>
      <trkpt lat="45.63209" lon="6.66907">
        <ele>2021.79</ele>
        <time>2018-02-06T11:18:04Z</time>
      </trkpt>
      <trkpt lat="45.63209" lon="6.66906">
        <ele>2020.83</ele>
        <time>2018-02-06T11:18:05Z</time>
      </trkpt>
      <trkpt lat="45.63208" lon="6.66894">
        <ele>2022.27</ele>
        <time>2018-02-06T11:18:21Z</time>
      </trkpt>
      <trkpt lat="45.63206" lon="6.66885">
        <ele>2022.27</ele>
        <time>2018-02-06T11:18:36Z</time>
      </trkpt>
      <trkpt lat="45.63203" lon="6.66877">
        <ele>2022.75</ele>
        <time>2018-02-06T11:18:47Z</time>
      </trkpt>
      <trkpt lat="45.63203" lon="6.66863">
        <ele>2024.19</ele>
        <time>2018-02-06T11:18:59Z</time>
      </trkpt>
      <trkpt lat="45.63203" lon="6.66858">
        <ele>2025.64</ele>
        <time>2018-02-06T11:19:04Z</time>
      </trkpt>
      <trkpt lat="45.63202" lon="6.66843">
        <ele>2026.6</ele>
        <time>2018-02-06T11:19:20Z</time>
      </trkpt>
      <trkpt lat="45.632" lon="6.6683">
        <ele>2027.08</ele>
        <time>2018-02-06T11:19:34Z</time>
      </trkpt>
      <trkpt lat="45.632" lon="6.66814">
        <ele>2028.04</ele>
        <time>2018-02-06T11:19:48Z</time>
      </trkpt>
      <trkpt lat="45.63199" lon="6.668">
        <ele>2028.52</ele>
        <time>2018-02-06T11:20:02Z</time>
      </trkpt>
      <trkpt lat="45.63198" lon="6.66783">
        <ele>2029</ele>
        <time>2018-02-06T11:20:18Z</time>
      </trkpt>
      <trkpt lat="45.63198" lon="6.66773">
        <ele>2029</ele>
        <time>2018-02-06T11:20:30Z</time>
      </trkpt>
      <trkpt lat="45.63198" lon="6.66758">
        <ele>2029.96</ele>
        <time>2018-02-06T11:20:43Z</time>
      </trkpt>
      <trkpt lat="45.63197" lon="6.66742">
        <ele>2030.44</ele>
        <time>2018-02-06T11:20:57Z</time>
      </trkpt>
      <trkpt lat="45.63196" lon="6.66728">
        <ele>2032.36</ele>
        <time>2018-02-06T11:21:12Z</time>
      </trkpt>
      <trkpt lat="45.63194" lon="6.66714">
        <ele>2035.73</ele>
        <time>2018-02-06T11:21:29Z</time>
      </trkpt>
      <trkpt lat="45.63186" lon="6.66705">
        <ele>2038.61</ele>
        <time>2018-02-06T11:21:44Z</time>
      </trkpt>
      <trkpt lat="45.63183" lon="6.66704">
        <ele>2041.98</ele>
        <time>2018-02-06T11:21:52Z</time>
      </trkpt>
      <trkpt lat="45.63183" lon="6.66704">
        <ele>2042.46</ele>
        <time>2018-02-06T11:21:53Z</time>
      </trkpt>
      <trkpt lat="45.63174" lon="6.66702">
        <ele>2042.46</ele>
        <time>2018-02-06T11:22:07Z</time>
      </trkpt>
      <trkpt lat="45.63162" lon="6.66698">
        <ele>2043.42</ele>
        <time>2018-02-06T11:22:24Z</time>
      </trkpt>
      <trkpt lat="45.63161" lon="6.66698">
        <ele>2042.94</ele>
        <time>2018-02-06T11:22:26Z</time>
      </trkpt>
      <trkpt lat="45.63153" lon="6.66697">
        <ele>2045.34</ele>
        <time>2018-02-06T11:22:35Z</time>
      </trkpt>
      <trkpt lat="45.63145" lon="6.66695">
        <ele>2046.78</ele>
        <time>2018-02-06T11:22:48Z</time>
      </trkpt>
      <trkpt lat="45.63142" lon="6.66695">
        <ele>2050.15</ele>
        <time>2018-02-06T11:22:54Z</time>
      </trkpt>
      <trkpt lat="45.63135" lon="6.66686">
        <ele>2049.19</ele>
        <time>2018-02-06T11:23:09Z</time>
      </trkpt>
      <trkpt lat="45.63132" lon="6.66679">
        <ele>2052.55</ele>
        <time>2018-02-06T11:23:22Z</time>
      </trkpt>
      <trkpt lat="45.6313" lon="6.66664">
        <ele>2053.99</ele>
        <time>2018-02-06T11:23:40Z</time>
      </trkpt>
      <trkpt lat="45.6313" lon="6.66648">
        <ele>2056.88</ele>
        <time>2018-02-06T11:23:56Z</time>
      </trkpt>
      <trkpt lat="45.6313" lon="6.6664">
        <ele>2059.28</ele>
        <time>2018-02-06T11:24:10Z</time>
      </trkpt>
      <trkpt lat="45.63129" lon="6.66632">
        <ele>2062.17</ele>
        <time>2018-02-06T11:24:26Z</time>
      </trkpt>
      <trkpt lat="45.63126" lon="6.66621">
        <ele>2064.57</ele>
        <time>2018-02-06T11:24:41Z</time>
      </trkpt>
      <trkpt lat="45.63125" lon="6.66613">
        <ele>2066.97</ele>
        <time>2018-02-06T11:24:53Z</time>
      </trkpt>
      <trkpt lat="45.63121" lon="6.66607">
        <ele>2068.89</ele>
        <time>2018-02-06T11:25:04Z</time>
      </trkpt>
      <trkpt lat="45.63118" lon="6.66607">
        <ele>2070.82</ele>
        <time>2018-02-06T11:25:11Z</time>
      </trkpt>
      <trkpt lat="45.63112" lon="6.66607">
        <ele>2072.74</ele>
        <time>2018-02-06T11:25:24Z</time>
      </trkpt>
      <trkpt lat="45.63102" lon="6.66603">
        <ele>2074.66</ele>
        <time>2018-02-06T11:25:38Z</time>
      </trkpt>
      <trkpt lat="45.63096" lon="6.66599">
        <ele>2077.07</ele>
        <time>2018-02-06T11:25:51Z</time>
      </trkpt>
      <trkpt lat="45.63091" lon="6.66593">
        <ele>2078.99</ele>
        <time>2018-02-06T11:26:06Z</time>
      </trkpt>
      <trkpt lat="45.6309" lon="6.66583">
        <ele>2080.91</ele>
        <time>2018-02-06T11:26:19Z</time>
      </trkpt>
      <trkpt lat="45.63085" lon="6.66569">
        <ele>2082.35</ele>
        <time>2018-02-06T11:26:35Z</time>
      </trkpt>
      <trkpt lat="45.63082" lon="6.66564">
        <ele>2081.87</ele>
        <time>2018-02-06T11:26:40Z</time>
      </trkpt>
      <trkpt lat="45.63074" lon="6.66553">
        <ele>2081.87</ele>
        <time>2018-02-06T11:26:53Z</time>
      </trkpt>
      <trkpt lat="45.63067" lon="6.66543">
        <ele>2082.35</ele>
        <time>2018-02-06T11:27:08Z</time>
      </trkpt>
      <trkpt lat="45.63067" lon="6.66542">
        <ele>2082.35</ele>
        <time>2018-02-06T11:27:09Z</time>
      </trkpt>
      <trkpt lat="45.63062" lon="6.66533">
        <ele>2085.72</ele>
        <time>2018-02-06T11:27:22Z</time>
      </trkpt>
      <trkpt lat="45.63057" lon="6.66525">
        <ele>2087.64</ele>
        <time>2018-02-06T11:27:32Z</time>
      </trkpt>
      <trkpt lat="45.6305" lon="6.6651">
        <ele>2089.56</ele>
        <time>2018-02-06T11:27:50Z</time>
      </trkpt>
      <trkpt lat="45.63047" lon="6.66504">
        <ele>2091</ele>
        <time>2018-02-06T11:27:58Z</time>
      </trkpt>
      <trkpt lat="45.63037" lon="6.66495">
        <ele>2092.93</ele>
        <time>2018-02-06T11:28:12Z</time>
      </trkpt>
      <trkpt lat="45.6303" lon="6.66495">
        <ele>2094.85</ele>
        <time>2018-02-06T11:28:25Z</time>
      </trkpt>
      <trkpt lat="45.63027" lon="6.66496">
        <ele>2094.85</ele>
        <time>2018-02-06T11:28:29Z</time>
      </trkpt>
      <trkpt lat="45.63018" lon="6.66496">
        <ele>2096.29</ele>
        <time>2018-02-06T11:28:44Z</time>
      </trkpt>
      <trkpt lat="45.63008" lon="6.66488">
        <ele>2099.18</ele>
        <time>2018-02-06T11:29:02Z</time>
      </trkpt>
      <trkpt lat="45.62999" lon="6.66476">
        <ele>2100.14</ele>
        <time>2018-02-06T11:29:19Z</time>
      </trkpt>
      <trkpt lat="45.62991" lon="6.66463">
        <ele>2102.06</ele>
        <time>2018-02-06T11:29:36Z</time>
      </trkpt>
      <trkpt lat="45.62986" lon="6.66454">
        <ele>2103.98</ele>
        <time>2018-02-06T11:29:50Z</time>
      </trkpt>
      <trkpt lat="45.62982" lon="6.66447">
        <ele>2106.39</ele>
        <time>2018-02-06T11:29:59Z</time>
      </trkpt>
      <trkpt lat="45.62976" lon="6.66435">
        <ele>2106.39</ele>
        <time>2018-02-06T11:30:15Z</time>
      </trkpt>
      <trkpt lat="45.62971" lon="6.66424">
        <ele>2108.31</ele>
        <time>2018-02-06T11:30:29Z</time>
      </trkpt>
      <trkpt lat="45.62966" lon="6.66413">
        <ele>2108.31</ele>
        <time>2018-02-06T11:30:42Z</time>
      </trkpt>
      <trkpt lat="45.62961" lon="6.66404">
        <ele>2108.79</ele>
        <time>2018-02-06T11:30:58Z</time>
      </trkpt>
      <trkpt lat="45.62958" lon="6.66397">
        <ele>2110.71</ele>
        <time>2018-02-06T11:31:12Z</time>
      </trkpt>
      <trkpt lat="45.62955" lon="6.6639">
        <ele>2112.63</ele>
        <time>2018-02-06T11:31:25Z</time>
      </trkpt>
      <trkpt lat="45.62953" lon="6.66383">
        <ele>2116</ele>
        <time>2018-02-06T11:31:38Z</time>
      </trkpt>
      <trkpt lat="45.6295" lon="6.66376">
        <ele>2117.92</ele>
        <time>2018-02-06T11:31:51Z</time>
      </trkpt>
      <trkpt lat="45.62943" lon="6.66374">
        <ele>2120.81</ele>
        <time>2018-02-06T11:32:05Z</time>
      </trkpt>
      <trkpt lat="45.62936" lon="6.66374">
        <ele>2122.73</ele>
        <time>2018-02-06T11:32:18Z</time>
      </trkpt>
      <trkpt lat="45.62931" lon="6.6637">
        <ele>2124.65</ele>
        <time>2018-02-06T11:32:32Z</time>
      </trkpt>
      <trkpt lat="45.62925" lon="6.6637">
        <ele>2127.05</ele>
        <time>2018-02-06T11:32:45Z</time>
      </trkpt>
      <trkpt lat="45.6292" lon="6.66368">
        <ele>2129.46</ele>
        <time>2018-02-06T11:32:57Z</time>
      </trkpt>
      <trkpt lat="45.62914" lon="6.66362">
        <ele>2131.38</ele>
        <time>2018-02-06T11:33:12Z</time>
      </trkpt>
      <trkpt lat="45.62908" lon="6.66358">
        <ele>2132.82</ele>
        <time>2018-02-06T11:33:25Z</time>
      </trkpt>
      <trkpt lat="45.62902" lon="6.66352">
        <ele>2135.23</ele>
        <time>2018-02-06T11:33:38Z</time>
      </trkpt>
      <trkpt lat="45.62896" lon="6.6635">
        <ele>2136.67</ele>
        <time>2018-02-06T11:33:50Z</time>
      </trkpt>
      <trkpt lat="45.62891" lon="6.66349">
        <ele>2139.55</ele>
        <time>2018-02-06T11:34:04Z</time>
      </trkpt>
      <trkpt lat="45.62886" lon="6.66344">
        <ele>2141.47</ele>
        <time>2018-02-06T11:34:16Z</time>
      </trkpt>
      <trkpt lat="45.62882" lon="6.66336">
        <ele>2143.88</ele>
        <time>2018-02-06T11:34:31Z</time>
      </trkpt>
      <trkpt lat="45.62879" lon="6.6633">
        <ele>2145.8</ele>
        <time>2018-02-06T11:34:45Z</time>
      </trkpt>
      <trkpt lat="45.62876" lon="6.6633">
        <ele>2146.76</ele>
        <time>2018-02-06T11:34:50Z</time>
      </trkpt>
      <trkpt lat="45.62868" lon="6.66329">
        <ele>2149.16</ele>
        <time>2018-02-06T11:35:04Z</time>
      </trkpt>
      <trkpt lat="45.62863" lon="6.66327">
        <ele>2150.13</ele>
        <time>2018-02-06T11:35:21Z</time>
      </trkpt>
      <trkpt lat="45.62862" lon="6.66327">
        <ele>2150.61</ele>
        <time>2018-02-06T11:35:42Z</time>
      </trkpt>
      <trkpt lat="45.62863" lon="6.66327">
        <ele>2150.61</ele>
        <time>2018-02-06T11:35:44Z</time>
      </trkpt>
      <trkpt lat="45.62864" lon="6.66327">
        <ele>2149.65</ele>
        <time>2018-02-06T11:35:54Z</time>
      </trkpt>
      <trkpt lat="45.62864" lon="6.66324">
        <ele>2149.65</ele>
        <time>2018-02-06T11:36:20Z</time>
      </trkpt>
      <trkpt lat="45.62864" lon="6.66324">
        <ele>2150.61</ele>
        <time>2018-02-06T11:36:49Z</time>
      </trkpt>
      <trkpt lat="45.62863" lon="6.66328">
        <ele>2151.09</ele>
        <time>2018-02-06T11:37:05Z</time>
      </trkpt>
      <trkpt lat="45.6286" lon="6.66325">
        <ele>2151.57</ele>
        <time>2018-02-06T11:37:30Z</time>
      </trkpt>
      <trkpt lat="45.62853" lon="6.66318">
        <ele>2154.93</ele>
        <time>2018-02-06T11:37:47Z</time>
      </trkpt>
      <trkpt lat="45.62844" lon="6.66307">
        <ele>2157.82</ele>
        <time>2018-02-06T11:38:05Z</time>
      </trkpt>
      <trkpt lat="45.62838" lon="6.66302">
        <ele>2159.74</ele>
        <time>2018-02-06T11:38:18Z</time>
      </trkpt>
      <trkpt lat="45.62836" lon="6.66298">
        <ele>2160.22</ele>
        <time>2018-02-06T11:38:29Z</time>
      </trkpt>
      <trkpt lat="45.62838" lon="6.66297">
        <ele>2160.7</ele>
        <time>2018-02-06T11:38:55Z</time>
      </trkpt>
      <trkpt lat="45.62835" lon="6.66297">
        <ele>2161.18</ele>
        <time>2018-02-06T11:39:22Z</time>
      </trkpt>
      <trkpt lat="45.62837" lon="6.663">
        <ele>2160.7</ele>
        <time>2018-02-06T11:39:46Z</time>
      </trkpt>
      <trkpt lat="45.62838" lon="6.66296">
        <ele>2160.7</ele>
        <time>2018-02-06T11:40:07Z</time>
      </trkpt>
      <trkpt lat="45.62837" lon="6.66295">
        <ele>2161.66</ele>
        <time>2018-02-06T11:40:22Z</time>
      </trkpt>
      <trkpt lat="45.62838" lon="6.66283">
        <ele>2161.18</ele>
        <time>2018-02-06T11:40:34Z</time>
      </trkpt>
      <trkpt lat="45.62841" lon="6.66274">
        <ele>2163.1</ele>
        <time>2018-02-06T11:40:46Z</time>
      </trkpt>
      <trkpt lat="45.62848" lon="6.66271">
        <ele>2164.06</ele>
        <time>2018-02-06T11:40:57Z</time>
      </trkpt>
      <trkpt lat="45.62858" lon="6.66271">
        <ele>2166.47</ele>
        <time>2018-02-06T11:41:13Z</time>
      </trkpt>
      <trkpt lat="45.62863" lon="6.66269">
        <ele>2167.91</ele>
        <time>2018-02-06T11:41:26Z</time>
      </trkpt>
      <trkpt lat="45.62864" lon="6.66266">
        <ele>2169.35</ele>
        <time>2018-02-06T11:41:40Z</time>
      </trkpt>
      <trkpt lat="45.62859" lon="6.66261">
        <ele>2170.79</ele>
        <time>2018-02-06T11:41:53Z</time>
      </trkpt>
      <trkpt lat="45.6286" lon="6.66258">
        <ele>2172.72</ele>
        <time>2018-02-06T11:42:07Z</time>
      </trkpt>
      <trkpt lat="45.62863" lon="6.66255">
        <ele>2173.2</ele>
        <time>2018-02-06T11:42:21Z</time>
      </trkpt>
      <trkpt lat="45.62857" lon="6.66254">
        <ele>2174.64</ele>
        <time>2018-02-06T11:42:32Z</time>
      </trkpt>
      <trkpt lat="45.62852" lon="6.66251">
        <ele>2176.56</ele>
        <time>2018-02-06T11:42:44Z</time>
      </trkpt>
      <trkpt lat="45.62849" lon="6.66247">
        <ele>2178</ele>
        <time>2018-02-06T11:42:58Z</time>
      </trkpt>
      <trkpt lat="45.62843" lon="6.66242">
        <ele>2179.93</ele>
        <time>2018-02-06T11:43:10Z</time>
      </trkpt>
      <trkpt lat="45.62838" lon="6.66237">
        <ele>2181.37</ele>
        <time>2018-02-06T11:43:24Z</time>
      </trkpt>
      <trkpt lat="45.6284" lon="6.6623">
        <ele>2183.77</ele>
        <time>2018-02-06T11:43:38Z</time>
      </trkpt>
      <trkpt lat="45.6284" lon="6.66223">
        <ele>2184.25</ele>
        <time>2018-02-06T11:43:48Z</time>
      </trkpt>
      <trkpt lat="45.62834" lon="6.66218">
        <ele>2186.66</ele>
        <time>2018-02-06T11:44:03Z</time>
      </trkpt>
      <trkpt lat="45.6283" lon="6.66212">
        <ele>2187.62</ele>
        <time>2018-02-06T11:44:16Z</time>
      </trkpt>
      <trkpt lat="45.62828" lon="6.66203">
        <ele>2189.06</ele>
        <time>2018-02-06T11:44:29Z</time>
      </trkpt>
      <trkpt lat="45.62834" lon="6.66199">
        <ele>2191.46</ele>
        <time>2018-02-06T11:44:42Z</time>
      </trkpt>
      <trkpt lat="45.6284" lon="6.66195">
        <ele>2192.9</ele>
        <time>2018-02-06T11:44:54Z</time>
      </trkpt>
      <trkpt lat="45.62842" lon="6.66192">
        <ele>2193.87</ele>
        <time>2018-02-06T11:45:08Z</time>
      </trkpt>
      <trkpt lat="45.62837" lon="6.66189">
        <ele>2195.31</ele>
        <time>2018-02-06T11:45:20Z</time>
      </trkpt>
      <trkpt lat="45.62833" lon="6.66185">
        <ele>2197.71</ele>
        <time>2018-02-06T11:45:33Z</time>
      </trkpt>
      <trkpt lat="45.62837" lon="6.66182">
        <ele>2198.67</ele>
        <time>2018-02-06T11:45:43Z</time>
      </trkpt>
      <trkpt lat="45.62842" lon="6.66178">
        <ele>2199.63</ele>
        <time>2018-02-06T11:45:56Z</time>
      </trkpt>
      <trkpt lat="45.62846" lon="6.66178">
        <ele>2200.59</ele>
        <time>2018-02-06T11:46:07Z</time>
      </trkpt>
      <trkpt lat="45.62846" lon="6.66178">
        <ele>2201.56</ele>
        <time>2018-02-06T11:46:21Z</time>
      </trkpt>
      <trkpt lat="45.62838" lon="6.66172">
        <ele>2203.96</ele>
        <time>2018-02-06T11:46:37Z</time>
      </trkpt>
      <trkpt lat="45.62833" lon="6.66168">
        <ele>2205.88</ele>
        <time>2018-02-06T11:46:50Z</time>
      </trkpt>
      <trkpt lat="45.62836" lon="6.66165">
        <ele>2206.84</ele>
        <time>2018-02-06T11:47:01Z</time>
      </trkpt>
      <trkpt lat="45.62842" lon="6.66163">
        <ele>2207.81</ele>
        <time>2018-02-06T11:47:14Z</time>
      </trkpt>
      <trkpt lat="45.62845" lon="6.66163">
        <ele>2208.77</ele>
        <time>2018-02-06T11:47:26Z</time>
      </trkpt>
      <trkpt lat="45.62847" lon="6.66161">
        <ele>2209.25</ele>
        <time>2018-02-06T11:47:52Z</time>
      </trkpt>
      <trkpt lat="45.62852" lon="6.66162">
        <ele>2210.21</ele>
        <time>2018-02-06T11:48:06Z</time>
      </trkpt>
      <trkpt lat="45.6285" lon="6.6616">
        <ele>2211.17</ele>
        <time>2018-02-06T11:48:17Z</time>
      </trkpt>
      <trkpt lat="45.62845" lon="6.66154">
        <ele>2212.61</ele>
        <time>2018-02-06T11:48:30Z</time>
      </trkpt>
      <trkpt lat="45.62842" lon="6.66152">
        <ele>2213.57</ele>
        <time>2018-02-06T11:48:44Z</time>
      </trkpt>
      <trkpt lat="45.62846" lon="6.66151">
        <ele>2215.01</ele>
        <time>2018-02-06T11:48:57Z</time>
      </trkpt>
      <trkpt lat="45.62852" lon="6.6615">
        <ele>2216.94</ele>
        <time>2018-02-06T11:49:10Z</time>
      </trkpt>
      <trkpt lat="45.62857" lon="6.66148">
        <ele>2217.9</ele>
        <time>2018-02-06T11:49:22Z</time>
      </trkpt>
      <trkpt lat="45.6286" lon="6.66147">
        <ele>2219.34</ele>
        <time>2018-02-06T11:49:37Z</time>
      </trkpt>
      <trkpt lat="45.62858" lon="6.66147">
        <ele>2219.82</ele>
        <time>2018-02-06T11:49:49Z</time>
      </trkpt>
      <trkpt lat="45.62852" lon="6.66142">
        <ele>2221.26</ele>
        <time>2018-02-06T11:50:02Z</time>
      </trkpt>
      <trkpt lat="45.62848" lon="6.66136">
        <ele>2223.67</ele>
        <time>2018-02-06T11:50:17Z</time>
      </trkpt>
      <trkpt lat="45.62845" lon="6.66134">
        <ele>2224.63</ele>
        <time>2018-02-06T11:50:29Z</time>
      </trkpt>
      <trkpt lat="45.62852" lon="6.66134">
        <ele>2226.07</ele>
        <time>2018-02-06T11:50:42Z</time>
      </trkpt>
      <trkpt lat="45.62858" lon="6.66133">
        <ele>2227.51</ele>
        <time>2018-02-06T11:50:55Z</time>
      </trkpt>
      <trkpt lat="45.6286" lon="6.6613">
        <ele>2228.95</ele>
        <time>2018-02-06T11:51:09Z</time>
      </trkpt>
      <trkpt lat="45.62855" lon="6.66126">
        <ele>2229.92</ele>
        <time>2018-02-06T11:51:20Z</time>
      </trkpt>
      <trkpt lat="45.62849" lon="6.66121">
        <ele>2231.84</ele>
        <time>2018-02-06T11:51:33Z</time>
      </trkpt>
      <trkpt lat="45.62849" lon="6.66119">
        <ele>2232.8</ele>
        <time>2018-02-06T11:51:45Z</time>
      </trkpt>
      <trkpt lat="45.62854" lon="6.66118">
        <ele>2234.24</ele>
        <time>2018-02-06T11:51:59Z</time>
      </trkpt>
      <trkpt lat="45.62861" lon="6.66118">
        <ele>2235.68</ele>
        <time>2018-02-06T11:52:12Z</time>
      </trkpt>
      <trkpt lat="45.62865" lon="6.66118">
        <ele>2237.13</ele>
        <time>2018-02-06T11:52:24Z</time>
      </trkpt>
      <trkpt lat="45.62868" lon="6.66119">
        <ele>2238.57</ele>
        <time>2018-02-06T11:52:38Z</time>
      </trkpt>
      <trkpt lat="45.62869" lon="6.66117">
        <ele>2239.05</ele>
        <time>2018-02-06T11:52:52Z</time>
      </trkpt>
      <trkpt lat="45.62867" lon="6.66112">
        <ele>2240.49</ele>
        <time>2018-02-06T11:53:03Z</time>
      </trkpt>
      <trkpt lat="45.62863" lon="6.66106">
        <ele>2241.93</ele>
        <time>2018-02-06T11:53:16Z</time>
      </trkpt>
      <trkpt lat="45.62858" lon="6.66103">
        <ele>2243.37</ele>
        <time>2018-02-06T11:53:28Z</time>
      </trkpt>
      <trkpt lat="45.62854" lon="6.66104">
        <ele>2243.85</ele>
        <time>2018-02-06T11:53:44Z</time>
      </trkpt>
      <trkpt lat="45.62855" lon="6.661">
        <ele>2244.82</ele>
        <time>2018-02-06T11:53:57Z</time>
      </trkpt>
      <trkpt lat="45.62862" lon="6.66097">
        <ele>2246.74</ele>
        <time>2018-02-06T11:54:08Z</time>
      </trkpt>
      <trkpt lat="45.62868" lon="6.66096">
        <ele>2247.7</ele>
        <time>2018-02-06T11:54:21Z</time>
      </trkpt>
      <trkpt lat="45.62868" lon="6.66094">
        <ele>2249.14</ele>
        <time>2018-02-06T11:54:35Z</time>
      </trkpt>
      <trkpt lat="45.62864" lon="6.66091">
        <ele>2250.1</ele>
        <time>2018-02-06T11:54:47Z</time>
      </trkpt>
      <trkpt lat="45.6286" lon="6.66088">
        <ele>2251.06</ele>
        <time>2018-02-06T11:54:59Z</time>
      </trkpt>
      <trkpt lat="45.6286" lon="6.66085">
        <ele>2251.54</ele>
        <time>2018-02-06T11:55:13Z</time>
      </trkpt>
      <trkpt lat="45.62865" lon="6.66084">
        <ele>2253.47</ele>
        <time>2018-02-06T11:55:24Z</time>
      </trkpt>
      <trkpt lat="45.62869" lon="6.66084">
        <ele>2255.39</ele>
        <time>2018-02-06T11:55:38Z</time>
      </trkpt>
      <trkpt lat="45.62875" lon="6.66085">
        <ele>2256.83</ele>
        <time>2018-02-06T11:55:51Z</time>
      </trkpt>
      <trkpt lat="45.62875" lon="6.66082">
        <ele>2257.79</ele>
        <time>2018-02-06T11:56:07Z</time>
      </trkpt>
      <trkpt lat="45.6287" lon="6.66078">
        <ele>2258.75</ele>
        <time>2018-02-06T11:56:19Z</time>
      </trkpt>
      <trkpt lat="45.62866" lon="6.66074">
        <ele>2259.72</ele>
        <time>2018-02-06T11:56:31Z</time>
      </trkpt>
      <trkpt lat="45.62865" lon="6.66069">
        <ele>2261.16</ele>
        <time>2018-02-06T11:56:43Z</time>
      </trkpt>
      <trkpt lat="45.62871" lon="6.6607">
        <ele>2262.12</ele>
        <time>2018-02-06T11:56:57Z</time>
      </trkpt>
      <trkpt lat="45.62876" lon="6.66068">
        <ele>2264.04</ele>
        <time>2018-02-06T11:57:09Z</time>
      </trkpt>
      <trkpt lat="45.62881" lon="6.66069">
        <ele>2265</ele>
        <time>2018-02-06T11:57:21Z</time>
      </trkpt>
      <trkpt lat="45.62878" lon="6.66067">
        <ele>2265.48</ele>
        <time>2018-02-06T11:57:34Z</time>
      </trkpt>
      <trkpt lat="45.62872" lon="6.66061">
        <ele>2267.41</ele>
        <time>2018-02-06T11:57:48Z</time>
      </trkpt>
      <trkpt lat="45.62868" lon="6.66057">
        <ele>2269.33</ele>
        <time>2018-02-06T11:58:00Z</time>
      </trkpt>
      <trkpt lat="45.62865" lon="6.66056">
        <ele>2271.25</ele>
        <time>2018-02-06T11:58:12Z</time>
      </trkpt>
      <trkpt lat="45.62863" lon="6.66051">
        <ele>2270.29</ele>
        <time>2018-02-06T11:58:28Z</time>
      </trkpt>
      <trkpt lat="45.62871" lon="6.66048">
        <ele>2273.17</ele>
        <time>2018-02-06T11:58:43Z</time>
      </trkpt>
      <trkpt lat="45.62877" lon="6.66045">
        <ele>2275.1</ele>
        <time>2018-02-06T11:58:56Z</time>
      </trkpt>
      <trkpt lat="45.62883" lon="6.66044">
        <ele>2277.02</ele>
        <time>2018-02-06T11:59:09Z</time>
      </trkpt>
      <trkpt lat="45.62881" lon="6.66043">
        <ele>2277.5</ele>
        <time>2018-02-06T11:59:22Z</time>
      </trkpt>
      <trkpt lat="45.62879" lon="6.66038">
        <ele>2278.94</ele>
        <time>2018-02-06T11:59:35Z</time>
      </trkpt>
      <trkpt lat="45.62875" lon="6.6603">
        <ele>2281.35</ele>
        <time>2018-02-06T11:59:49Z</time>
      </trkpt>
      <trkpt lat="45.62872" lon="6.66026">
        <ele>2282.79</ele>
        <time>2018-02-06T12:00:03Z</time>
      </trkpt>
      <trkpt lat="45.62876" lon="6.66024">
        <ele>2283.75</ele>
        <time>2018-02-06T12:00:16Z</time>
      </trkpt>
      <trkpt lat="45.62883" lon="6.66022">
        <ele>2286.15</ele>
        <time>2018-02-06T12:00:30Z</time>
      </trkpt>
      <trkpt lat="45.62887" lon="6.66017">
        <ele>2288.08</ele>
        <time>2018-02-06T12:00:43Z</time>
      </trkpt>
      <trkpt lat="45.62893" lon="6.66012">
        <ele>2289.52</ele>
        <time>2018-02-06T12:00:57Z</time>
      </trkpt>
      <trkpt lat="45.62899" lon="6.66007">
        <ele>2290.96</ele>
        <time>2018-02-06T12:01:10Z</time>
      </trkpt>
      <trkpt lat="45.62904" lon="6.66003">
        <ele>2292.4</ele>
        <time>2018-02-06T12:01:22Z</time>
      </trkpt>
      <trkpt lat="45.6291" lon="6.66002">
        <ele>2294.32</ele>
        <time>2018-02-06T12:01:35Z</time>
      </trkpt>
      <trkpt lat="45.62914" lon="6.65996">
        <ele>2295.77</ele>
        <time>2018-02-06T12:01:48Z</time>
      </trkpt>
      <trkpt lat="45.62915" lon="6.65988">
        <ele>2297.69</ele>
        <time>2018-02-06T12:02:01Z</time>
      </trkpt>
      <trkpt lat="45.62911" lon="6.65984">
        <ele>2298.65</ele>
        <time>2018-02-06T12:02:13Z</time>
      </trkpt>
      <trkpt lat="45.62906" lon="6.65978">
        <ele>2300.57</ele>
        <time>2018-02-06T12:02:26Z</time>
      </trkpt>
      <trkpt lat="45.62901" lon="6.65974">
        <ele>2302.01</ele>
        <time>2018-02-06T12:02:38Z</time>
      </trkpt>
      <trkpt lat="45.62895" lon="6.65972">
        <ele>2303.94</ele>
        <time>2018-02-06T12:02:51Z</time>
      </trkpt>
      <trkpt lat="45.62891" lon="6.65967">
        <ele>2305.38</ele>
        <time>2018-02-06T12:03:04Z</time>
      </trkpt>
      <trkpt lat="45.62891" lon="6.65959">
        <ele>2307.3</ele>
        <time>2018-02-06T12:03:17Z</time>
      </trkpt>
      <trkpt lat="45.62896" lon="6.65956">
        <ele>2309.22</ele>
        <time>2018-02-06T12:03:30Z</time>
      </trkpt>
      <trkpt lat="45.62901" lon="6.65949">
        <ele>2310.67</ele>
        <time>2018-02-06T12:03:42Z</time>
      </trkpt>
      <trkpt lat="45.62904" lon="6.65936">
        <ele>2313.07</ele>
        <time>2018-02-06T12:03:55Z</time>
      </trkpt>
      <trkpt lat="45.62905" lon="6.65939">
        <ele>2313.55</ele>
        <time>2018-02-06T12:04:08Z</time>
      </trkpt>
      <trkpt lat="45.62905" lon="6.65941">
        <ele>2312.59</ele>
        <time>2018-02-06T12:04:17Z</time>
      </trkpt>
      <trkpt lat="45.62902" lon="6.65935">
        <ele>2312.11</ele>
        <time>2018-02-06T12:04:48Z</time>
      </trkpt>
      <trkpt lat="45.62905" lon="6.65941">
        <ele>2312.59</ele>
        <time>2018-02-06T12:05:25Z</time>
      </trkpt>
      <trkpt lat="45.62906" lon="6.65939">
        <ele>2312.11</ele>
        <time>2018-02-06T12:06:14Z</time>
      </trkpt>
      <trkpt lat="45.62911" lon="6.65941">
        <ele>2311.63</ele>
        <time>2018-02-06T12:06:53Z</time>
      </trkpt>
      <trkpt lat="45.62905" lon="6.65937">
        <ele>2312.59</ele>
        <time>2018-02-06T12:07:07Z</time>
      </trkpt>
      <trkpt lat="45.62906" lon="6.65937">
        <ele>2313.07</ele>
        <time>2018-02-06T12:07:32Z</time>
      </trkpt>
      <trkpt lat="45.62906" lon="6.65931">
        <ele>2313.07</ele>
        <time>2018-02-06T12:07:48Z</time>
      </trkpt>
      <trkpt lat="45.62902" lon="6.65922">
        <ele>2314.51</ele>
        <time>2018-02-06T12:08:03Z</time>
      </trkpt>
      <trkpt lat="45.62903" lon="6.65907">
        <ele>2317.4</ele>
        <time>2018-02-06T12:08:22Z</time>
      </trkpt>
      <trkpt lat="45.62902" lon="6.65899">
        <ele>2319.32</ele>
        <time>2018-02-06T12:08:38Z</time>
      </trkpt>
      <trkpt lat="45.62898" lon="6.65891">
        <ele>2321.72</ele>
        <time>2018-02-06T12:08:53Z</time>
      </trkpt>
      <trkpt lat="45.62895" lon="6.65883">
        <ele>2323.64</ele>
        <time>2018-02-06T12:09:08Z</time>
      </trkpt>
      <trkpt lat="45.62895" lon="6.65876">
        <ele>2325.57</ele>
        <time>2018-02-06T12:09:21Z</time>
      </trkpt>
      <trkpt lat="45.62899" lon="6.6587">
        <ele>2326.53</ele>
        <time>2018-02-06T12:09:34Z</time>
      </trkpt>
      <trkpt lat="45.62907" lon="6.65864">
        <ele>2327.97</ele>
        <time>2018-02-06T12:09:50Z</time>
      </trkpt>
      <trkpt lat="45.62912" lon="6.65856">
        <ele>2329.89</ele>
        <time>2018-02-06T12:10:06Z</time>
      </trkpt>
      <trkpt lat="45.62919" lon="6.65849">
        <ele>2330.85</ele>
        <time>2018-02-06T12:10:19Z</time>
      </trkpt>
      <trkpt lat="45.62926" lon="6.65845">
        <ele>2332.3</ele>
        <time>2018-02-06T12:10:35Z</time>
      </trkpt>
      <trkpt lat="45.6293" lon="6.65839">
        <ele>2334.22</ele>
        <time>2018-02-06T12:10:49Z</time>
      </trkpt>
      <trkpt lat="45.6293" lon="6.6583">
        <ele>2335.66</ele>
        <time>2018-02-06T12:11:03Z</time>
      </trkpt>
      <trkpt lat="45.62931" lon="6.65822">
        <ele>2337.58</ele>
        <time>2018-02-06T12:11:17Z</time>
      </trkpt>
      <trkpt lat="45.6293" lon="6.65813">
        <ele>2339.99</ele>
        <time>2018-02-06T12:11:32Z</time>
      </trkpt>
      <trkpt lat="45.6293" lon="6.65804">
        <ele>2341.43</ele>
        <time>2018-02-06T12:11:46Z</time>
      </trkpt>
      <trkpt lat="45.62928" lon="6.65792">
        <ele>2342.87</ele>
        <time>2018-02-06T12:12:01Z</time>
      </trkpt>
      <trkpt lat="45.62925" lon="6.65779">
        <ele>2343.83</ele>
        <time>2018-02-06T12:12:17Z</time>
      </trkpt>
      <trkpt lat="45.62924" lon="6.65778">
        <ele>2343.83</ele>
        <time>2018-02-06T12:12:31Z</time>
      </trkpt>
      <trkpt lat="45.62923" lon="6.65774">
        <ele>2343.83</ele>
        <time>2018-02-06T12:13:05Z</time>
      </trkpt>
      <trkpt lat="45.62928" lon="6.65779">
        <ele>2344.31</ele>
        <time>2018-02-06T12:13:19Z</time>
      </trkpt>
      <trkpt lat="45.62925" lon="6.65777">
        <ele>2343.35</ele>
        <time>2018-02-06T12:13:39Z</time>
      </trkpt>
      <trkpt lat="45.62924" lon="6.6577">
        <ele>2343.83</ele>
        <time>2018-02-06T12:13:50Z</time>
      </trkpt>
      <trkpt lat="45.6292" lon="6.65763">
        <ele>2345.75</ele>
        <time>2018-02-06T12:14:07Z</time>
      </trkpt>
      <trkpt lat="45.62919" lon="6.65754">
        <ele>2348.16</ele>
        <time>2018-02-06T12:14:21Z</time>
      </trkpt>
      <trkpt lat="45.62912" lon="6.65752">
        <ele>2348.64</ele>
        <time>2018-02-06T12:14:34Z</time>
      </trkpt>
      <trkpt lat="45.62909" lon="6.65748">
        <ele>2350.56</ele>
        <time>2018-02-06T12:14:47Z</time>
      </trkpt>
      <trkpt lat="45.62912" lon="6.65739">
        <ele>2352.48</ele>
        <time>2018-02-06T12:15:01Z</time>
      </trkpt>
      <trkpt lat="45.62908" lon="6.65737">
        <ele>2353.44</ele>
        <time>2018-02-06T12:15:13Z</time>
      </trkpt>
      <trkpt lat="45.62901" lon="6.65735">
        <ele>2355.37</ele>
        <time>2018-02-06T12:15:28Z</time>
      </trkpt>
      <trkpt lat="45.62895" lon="6.65733">
        <ele>2357.29</ele>
        <time>2018-02-06T12:15:43Z</time>
      </trkpt>
      <trkpt lat="45.62895" lon="6.65724">
        <ele>2358.73</ele>
        <time>2018-02-06T12:15:54Z</time>
      </trkpt>
      <trkpt lat="45.62895" lon="6.6572">
        <ele>2360.17</ele>
        <time>2018-02-06T12:16:07Z</time>
      </trkpt>
      <trkpt lat="45.62886" lon="6.65722">
        <ele>2362.1</ele>
        <time>2018-02-06T12:16:25Z</time>
      </trkpt>
      <trkpt lat="45.6288" lon="6.65722">
        <ele>2363.54</ele>
        <time>2018-02-06T12:16:38Z</time>
      </trkpt>
      <trkpt lat="45.6288" lon="6.65713">
        <ele>2365.46</ele>
        <time>2018-02-06T12:16:51Z</time>
      </trkpt>
      <trkpt lat="45.62881" lon="6.65703">
        <ele>2367.38</ele>
        <time>2018-02-06T12:17:05Z</time>
      </trkpt>
      <trkpt lat="45.62875" lon="6.65704">
        <ele>2368.35</ele>
        <time>2018-02-06T12:17:17Z</time>
      </trkpt>
      <trkpt lat="45.62869" lon="6.65705">
        <ele>2370.27</ele>
        <time>2018-02-06T12:17:30Z</time>
      </trkpt>
      <trkpt lat="45.62865" lon="6.65699">
        <ele>2372.67</ele>
        <time>2018-02-06T12:17:45Z</time>
      </trkpt>
      <trkpt lat="45.62864" lon="6.65693">
        <ele>2373.63</ele>
        <time>2018-02-06T12:17:57Z</time>
      </trkpt>
      <trkpt lat="45.62859" lon="6.65694">
        <ele>2375.55</ele>
        <time>2018-02-06T12:18:09Z</time>
      </trkpt>
      <trkpt lat="45.62857" lon="6.65694">
        <ele>2375.55</ele>
        <time>2018-02-06T12:18:12Z</time>
      </trkpt>
      <trkpt lat="45.62851" lon="6.65696">
        <ele>2377</ele>
        <time>2018-02-06T12:18:26Z</time>
      </trkpt>
      <trkpt lat="45.62845" lon="6.65699">
        <ele>2378.92</ele>
        <time>2018-02-06T12:18:38Z</time>
      </trkpt>
      <trkpt lat="45.62844" lon="6.6569">
        <ele>2380.36</ele>
        <time>2018-02-06T12:18:49Z</time>
      </trkpt>
      <trkpt lat="45.62844" lon="6.65683">
        <ele>2382.28</ele>
        <time>2018-02-06T12:19:02Z</time>
      </trkpt>
      <trkpt lat="45.62844" lon="6.65675">
        <ele>2383.73</ele>
        <time>2018-02-06T12:19:15Z</time>
      </trkpt>
      <trkpt lat="45.6284" lon="6.65678">
        <ele>2384.69</ele>
        <time>2018-02-06T12:19:28Z</time>
      </trkpt>
      <trkpt lat="45.62835" lon="6.65683">
        <ele>2386.61</ele>
        <time>2018-02-06T12:19:41Z</time>
      </trkpt>
      <trkpt lat="45.62831" lon="6.65687">
        <ele>2388.05</ele>
        <time>2018-02-06T12:19:53Z</time>
      </trkpt>
      <trkpt lat="45.62827" lon="6.65692">
        <ele>2389.97</ele>
        <time>2018-02-06T12:20:06Z</time>
      </trkpt>
      <trkpt lat="45.62828" lon="6.65682">
        <ele>2389.49</ele>
        <time>2018-02-06T12:20:17Z</time>
      </trkpt>
      <trkpt lat="45.62826" lon="6.65673">
        <ele>2392.38</ele>
        <time>2018-02-06T12:20:32Z</time>
      </trkpt>
      <trkpt lat="45.62824" lon="6.65672">
        <ele>2393.34</ele>
        <time>2018-02-06T12:20:48Z</time>
      </trkpt>
      <trkpt lat="45.62818" lon="6.65678">
        <ele>2396.22</ele>
        <time>2018-02-06T12:21:05Z</time>
      </trkpt>
      <trkpt lat="45.62814" lon="6.65683">
        <ele>2397.67</ele>
        <time>2018-02-06T12:21:19Z</time>
      </trkpt>
      <trkpt lat="45.6281" lon="6.65676">
        <ele>2399.11</ele>
        <time>2018-02-06T12:21:34Z</time>
      </trkpt>
      <trkpt lat="45.62809" lon="6.65668">
        <ele>2401.03</ele>
        <time>2018-02-06T12:21:48Z</time>
      </trkpt>
      <trkpt lat="45.62809" lon="6.65665">
        <ele>2401.51</ele>
        <time>2018-02-06T12:22:02Z</time>
      </trkpt>
      <trkpt lat="45.62806" lon="6.65669">
        <ele>2402.47</ele>
        <time>2018-02-06T12:22:14Z</time>
      </trkpt>
      <trkpt lat="45.62801" lon="6.65675">
        <ele>2403.91</ele>
        <time>2018-02-06T12:22:26Z</time>
      </trkpt>
      <trkpt lat="45.62799" lon="6.65673">
        <ele>2404.88</ele>
        <time>2018-02-06T12:22:41Z</time>
      </trkpt>
      <trkpt lat="45.62798" lon="6.65664">
        <ele>2406.32</ele>
        <time>2018-02-06T12:22:54Z</time>
      </trkpt>
      <trkpt lat="45.62798" lon="6.65662">
        <ele>2408.24</ele>
        <time>2018-02-06T12:23:06Z</time>
      </trkpt>
      <trkpt lat="45.62793" lon="6.65668">
        <ele>2408.72</ele>
        <time>2018-02-06T12:23:16Z</time>
      </trkpt>
      <trkpt lat="45.62792" lon="6.65675">
        <ele>2410.64</ele>
        <time>2018-02-06T12:23:29Z</time>
      </trkpt>
      <trkpt lat="45.6279" lon="6.65677">
        <ele>2411.12</ele>
        <time>2018-02-06T12:23:38Z</time>
      </trkpt>
      <trkpt lat="45.62787" lon="6.65668">
        <ele>2412.57</ele>
        <time>2018-02-06T12:23:53Z</time>
      </trkpt>
      <trkpt lat="45.62786" lon="6.6566">
        <ele>2414.01</ele>
        <time>2018-02-06T12:24:05Z</time>
      </trkpt>
      <trkpt lat="45.62783" lon="6.65663">
        <ele>2414.97</ele>
        <time>2018-02-06T12:24:17Z</time>
      </trkpt>
      <trkpt lat="45.62781" lon="6.65669">
        <ele>2416.41</ele>
        <time>2018-02-06T12:24:29Z</time>
      </trkpt>
      <trkpt lat="45.62781" lon="6.65678">
        <ele>2416.89</ele>
        <time>2018-02-06T12:24:43Z</time>
      </trkpt>
      <trkpt lat="45.62777" lon="6.65672">
        <ele>2418.33</ele>
        <time>2018-02-06T12:24:54Z</time>
      </trkpt>
      <trkpt lat="45.62775" lon="6.65667">
        <ele>2419.78</ele>
        <time>2018-02-06T12:25:08Z</time>
      </trkpt>
      <trkpt lat="45.62773" lon="6.65674">
        <ele>2420.74</ele>
        <time>2018-02-06T12:25:21Z</time>
      </trkpt>
      <trkpt lat="45.62774" lon="6.65681">
        <ele>2421.7</ele>
        <time>2018-02-06T12:25:34Z</time>
      </trkpt>
      <trkpt lat="45.62776" lon="6.65689">
        <ele>2423.62</ele>
        <time>2018-02-06T12:25:46Z</time>
      </trkpt>
      <trkpt lat="45.62777" lon="6.65697">
        <ele>2424.58</ele>
        <time>2018-02-06T12:25:57Z</time>
      </trkpt>
      <trkpt lat="45.62769" lon="6.65698">
        <ele>2426.5</ele>
        <time>2018-02-06T12:26:15Z</time>
      </trkpt>
      <trkpt lat="45.62761" lon="6.65694">
        <ele>2428.43</ele>
        <time>2018-02-06T12:26:31Z</time>
      </trkpt>
      <trkpt lat="45.62755" lon="6.65687">
        <ele>2428.91</ele>
        <time>2018-02-06T12:26:44Z</time>
      </trkpt>
      <trkpt lat="45.62754" lon="6.65678">
        <ele>2428.91</ele>
        <time>2018-02-06T12:26:56Z</time>
      </trkpt>
      <trkpt lat="45.62752" lon="6.65669">
        <ele>2430.35</ele>
        <time>2018-02-06T12:27:09Z</time>
      </trkpt>
      <trkpt lat="45.62753" lon="6.65659">
        <ele>2431.79</ele>
        <time>2018-02-06T12:27:22Z</time>
      </trkpt>
      <trkpt lat="45.62753" lon="6.65651">
        <ele>2433.71</ele>
        <time>2018-02-06T12:27:34Z</time>
      </trkpt>
      <trkpt lat="45.62752" lon="6.65644">
        <ele>2434.68</ele>
        <time>2018-02-06T12:27:46Z</time>
      </trkpt>
      <trkpt lat="45.6275" lon="6.65643">
        <ele>2434.68</ele>
        <time>2018-02-06T12:27:57Z</time>
      </trkpt>
      <trkpt lat="45.62751" lon="6.65644">
        <ele>2434.2</ele>
        <time>2018-02-06T12:28:24Z</time>
      </trkpt>
      <trkpt lat="45.62747" lon="6.65642">
        <ele>2434.2</ele>
        <time>2018-02-06T12:28:55Z</time>
      </trkpt>
      <trkpt lat="45.62747" lon="6.65643">
        <ele>2434.2</ele>
        <time>2018-02-06T12:29:20Z</time>
      </trkpt>
      <trkpt lat="45.62748" lon="6.65642">
        <ele>2434.68</ele>
        <time>2018-02-06T12:29:46Z</time>
      </trkpt>
      <trkpt lat="45.62748" lon="6.65642">
        <ele>2434.2</ele>
        <time>2018-02-06T12:30:19Z</time>
      </trkpt>
      <trkpt lat="45.6275" lon="6.65643">
        <ele>2433.71</ele>
        <time>2018-02-06T12:30:42Z</time>
      </trkpt>
      <trkpt lat="45.62752" lon="6.65645">
        <ele>2433.71</ele>
        <time>2018-02-06T12:31:12Z</time>
      </trkpt>
      <trkpt lat="45.62751" lon="6.6564">
        <ele>2433.71</ele>
        <time>2018-02-06T12:31:25Z</time>
      </trkpt>
      <trkpt lat="45.62752" lon="6.65641">
        <ele>2433.71</ele>
        <time>2018-02-06T12:31:50Z</time>
      </trkpt>
      <trkpt lat="45.6275" lon="6.65641">
        <ele>2433.23</ele>
        <time>2018-02-06T12:32:03Z</time>
      </trkpt>
      <trkpt lat="45.6275" lon="6.65643">
        <ele>2433.71</ele>
        <time>2018-02-06T12:32:13Z</time>
      </trkpt>
      <trkpt lat="45.62753" lon="6.65645">
        <ele>2433.23</ele>
        <time>2018-02-06T12:32:35Z</time>
      </trkpt>
      <trkpt lat="45.62751" lon="6.65644">
        <ele>2433.71</ele>
        <time>2018-02-06T12:32:57Z</time>
      </trkpt>
      <trkpt lat="45.62748" lon="6.65643">
        <ele>2433.23</ele>
        <time>2018-02-06T12:33:23Z</time>
      </trkpt>
      <trkpt lat="45.6275" lon="6.65643">
        <ele>2432.75</ele>
        <time>2018-02-06T12:33:46Z</time>
      </trkpt>
      <trkpt lat="45.6275" lon="6.65644">
        <ele>2432.75</ele>
        <time>2018-02-06T12:34:11Z</time>
      </trkpt>
      <trkpt lat="45.62747" lon="6.65644">
        <ele>2433.23</ele>
        <time>2018-02-06T12:34:40Z</time>
      </trkpt>
      <trkpt lat="45.62748" lon="6.65643">
        <ele>2433.23</ele>
        <time>2018-02-06T12:35:09Z</time>
      </trkpt>
      <trkpt lat="45.62748" lon="6.65641">
        <ele>2433.23</ele>
        <time>2018-02-06T12:35:32Z</time>
      </trkpt>
      <trkpt lat="45.62746" lon="6.65645">
        <ele>2433.23</ele>
        <time>2018-02-06T12:36:01Z</time>
      </trkpt>
      <trkpt lat="45.62749" lon="6.65635">
        <ele>2432.75</ele>
        <time>2018-02-06T12:36:17Z</time>
      </trkpt>
      <trkpt lat="45.62749" lon="6.65634">
        <ele>2433.23</ele>
        <time>2018-02-06T12:36:18Z</time>
      </trkpt>
      <trkpt lat="45.62751" lon="6.65615">
        <ele>2433.23</ele>
        <time>2018-02-06T12:36:35Z</time>
      </trkpt>
      <trkpt lat="45.62752" lon="6.65605">
        <ele>2435.16</ele>
        <time>2018-02-06T12:36:49Z</time>
      </trkpt>
      <trkpt lat="45.62752" lon="6.6559">
        <ele>2436.6</ele>
        <time>2018-02-06T12:37:05Z</time>
      </trkpt>
      <trkpt lat="45.62752" lon="6.65574">
        <ele>2437.56</ele>
        <time>2018-02-06T12:37:25Z</time>
      </trkpt>
      <trkpt lat="45.62751" lon="6.65567">
        <ele>2438.52</ele>
        <time>2018-02-06T12:37:44Z</time>
      </trkpt>
      <trkpt lat="45.62753" lon="6.65565">
        <ele>2438.52</ele>
        <time>2018-02-06T12:38:04Z</time>
      </trkpt>
      <trkpt lat="45.62751" lon="6.65565">
        <ele>2438.52</ele>
        <time>2018-02-06T12:38:34Z</time>
      </trkpt>
      <trkpt lat="45.6275" lon="6.65565">
        <ele>2438.04</ele>
        <time>2018-02-06T12:38:57Z</time>
      </trkpt>
      <trkpt lat="45.62748" lon="6.65565">
        <ele>2438.04</ele>
        <time>2018-02-06T12:39:25Z</time>
      </trkpt>
      <trkpt lat="45.62746" lon="6.65564">
        <ele>2438.04</ele>
        <time>2018-02-06T12:39:40Z</time>
      </trkpt>
      <trkpt lat="45.6275" lon="6.65564">
        <ele>2438.04</ele>
        <time>2018-02-06T12:40:04Z</time>
      </trkpt>
      <trkpt lat="45.62748" lon="6.65557">
        <ele>2438.52</ele>
        <time>2018-02-06T12:40:19Z</time>
      </trkpt>
      <trkpt lat="45.62747" lon="6.65547">
        <ele>2439.48</ele>
        <time>2018-02-06T12:40:40Z</time>
      </trkpt>
      <trkpt lat="45.62746" lon="6.65534">
        <ele>2441.41</ele>
        <time>2018-02-06T12:40:59Z</time>
      </trkpt>
      <trkpt lat="45.62742" lon="6.65526">
        <ele>2442.85</ele>
        <time>2018-02-06T12:41:12Z</time>
      </trkpt>
      <trkpt lat="45.62736" lon="6.6552">
        <ele>2444.29</ele>
        <time>2018-02-06T12:41:28Z</time>
      </trkpt>
      <trkpt lat="45.62727" lon="6.65513">
        <ele>2444.29</ele>
        <time>2018-02-06T12:41:43Z</time>
      </trkpt>
      <trkpt lat="45.62721" lon="6.65503">
        <ele>2444.77</ele>
        <time>2018-02-06T12:42:03Z</time>
      </trkpt>
      <trkpt lat="45.6272" lon="6.65497">
        <ele>2445.73</ele>
        <time>2018-02-06T12:42:18Z</time>
      </trkpt>
      <trkpt lat="45.62717" lon="6.65487">
        <ele>2445.73</ele>
        <time>2018-02-06T12:42:38Z</time>
      </trkpt>
      <trkpt lat="45.62715" lon="6.65479">
        <ele>2446.69</ele>
        <time>2018-02-06T12:42:51Z</time>
      </trkpt>
      <trkpt lat="45.62709" lon="6.6547">
        <ele>2447.65</ele>
        <time>2018-02-06T12:43:07Z</time>
      </trkpt>
      <trkpt lat="45.62705" lon="6.65461">
        <ele>2449.1</ele>
        <time>2018-02-06T12:43:23Z</time>
      </trkpt>
      <trkpt lat="45.627" lon="6.65456">
        <ele>2450.06</ele>
        <time>2018-02-06T12:43:41Z</time>
      </trkpt>
      <trkpt lat="45.62699" lon="6.65455">
        <ele>2450.06</ele>
        <time>2018-02-06T12:44:12Z</time>
      </trkpt>
      <trkpt lat="45.62704" lon="6.65457">
        <ele>2451.02</ele>
        <time>2018-02-06T12:44:49Z</time>
      </trkpt>
      <trkpt lat="45.62694" lon="6.65448">
        <ele>2450.54</ele>
        <time>2018-02-06T12:45:06Z</time>
      </trkpt>
      <trkpt lat="45.62688" lon="6.65436">
        <ele>2451.02</ele>
        <time>2018-02-06T12:45:22Z</time>
      </trkpt>
      <trkpt lat="45.62683" lon="6.65427">
        <ele>2452.46</ele>
        <time>2018-02-06T12:45:39Z</time>
      </trkpt>
      <trkpt lat="45.62676" lon="6.65421">
        <ele>2453.42</ele>
        <time>2018-02-06T12:45:54Z</time>
      </trkpt>
      <trkpt lat="45.62671" lon="6.65413">
        <ele>2454.38</ele>
        <time>2018-02-06T12:46:10Z</time>
      </trkpt>
      <trkpt lat="45.62671" lon="6.65413">
        <ele>2454.38</ele>
        <time>2018-02-06T12:46:18Z</time>
      </trkpt>
      <trkpt lat="45.62674" lon="6.65415">
        <ele>2453.9</ele>
        <time>2018-02-06T12:46:29Z</time>
      </trkpt>
      <trkpt lat="45.62674" lon="6.65414">
        <ele>2453.9</ele>
        <time>2018-02-06T12:46:57Z</time>
      </trkpt>
      <trkpt lat="45.62673" lon="6.65415">
        <ele>2453.42</ele>
        <time>2018-02-06T12:47:31Z</time>
      </trkpt>
      <trkpt lat="45.62673" lon="6.65415">
        <ele>2453.42</ele>
        <time>2018-02-06T12:47:35Z</time>
      </trkpt>
      <trkpt lat="45.62672" lon="6.65415">
        <ele>2453.9</ele>
        <time>2018-02-06T12:47:49Z</time>
      </trkpt>
      <trkpt lat="45.62671" lon="6.65414">
        <ele>2454.38</ele>
        <time>2018-02-06T12:48:17Z</time>
      </trkpt>
      <trkpt lat="45.62663" lon="6.65406">
        <ele>2455.82</ele>
        <time>2018-02-06T12:48:33Z</time>
      </trkpt>
      <trkpt lat="45.62656" lon="6.65399">
        <ele>2456.31</ele>
        <time>2018-02-06T12:48:47Z</time>
      </trkpt>
      <trkpt lat="45.62648" lon="6.65394">
        <ele>2457.75</ele>
        <time>2018-02-06T12:49:06Z</time>
      </trkpt>
      <trkpt lat="45.62644" lon="6.65389">
        <ele>2458.71</ele>
        <time>2018-02-06T12:49:26Z</time>
      </trkpt>
      <trkpt lat="45.62637" lon="6.65387">
        <ele>2459.19</ele>
        <time>2018-02-06T12:49:40Z</time>
      </trkpt>
      <trkpt lat="45.62633" lon="6.65386">
        <ele>2459.19</ele>
        <time>2018-02-06T12:49:57Z</time>
      </trkpt>
      <trkpt lat="45.62624" lon="6.65383">
        <ele>2460.63</ele>
        <time>2018-02-06T12:50:14Z</time>
      </trkpt>
      <trkpt lat="45.62613" lon="6.65383">
        <ele>2460.63</ele>
        <time>2018-02-06T12:50:31Z</time>
      </trkpt>
      <trkpt lat="45.62604" lon="6.65385">
        <ele>2461.59</ele>
        <time>2018-02-06T12:50:45Z</time>
      </trkpt>
      <trkpt lat="45.6261" lon="6.65377">
        <ele>2463.04</ele>
        <time>2018-02-06T12:50:58Z</time>
      </trkpt>
      <trkpt lat="45.62613" lon="6.65372">
        <ele>2464.48</ele>
        <time>2018-02-06T12:51:13Z</time>
      </trkpt>
      <trkpt lat="45.62609" lon="6.65375">
        <ele>2464.48</ele>
        <time>2018-02-06T12:51:27Z</time>
      </trkpt>
      <trkpt lat="45.626" lon="6.65378">
        <ele>2466.88</ele>
        <time>2018-02-06T12:51:44Z</time>
      </trkpt>
      <trkpt lat="45.62602" lon="6.65371">
        <ele>2468.32</ele>
        <time>2018-02-06T12:51:58Z</time>
      </trkpt>
      <trkpt lat="45.62607" lon="6.65365">
        <ele>2469.76</ele>
        <time>2018-02-06T12:52:11Z</time>
      </trkpt>
      <trkpt lat="45.62607" lon="6.65365">
        <ele>2470.73</ele>
        <time>2018-02-06T12:52:26Z</time>
      </trkpt>
      <trkpt lat="45.62599" lon="6.65368">
        <ele>2472.65</ele>
        <time>2018-02-06T12:52:42Z</time>
      </trkpt>
      <trkpt lat="45.62593" lon="6.65371">
        <ele>2473.13</ele>
        <time>2018-02-06T12:53:00Z</time>
      </trkpt>
      <trkpt lat="45.62595" lon="6.65363">
        <ele>2474.09</ele>
        <time>2018-02-06T12:53:12Z</time>
      </trkpt>
      <trkpt lat="45.62599" lon="6.65358">
        <ele>2476.01</ele>
        <time>2018-02-06T12:53:24Z</time>
      </trkpt>
      <trkpt lat="45.62597" lon="6.65357">
        <ele>2476.01</ele>
        <time>2018-02-06T12:53:38Z</time>
      </trkpt>
      <trkpt lat="45.62589" lon="6.65362">
        <ele>2476.97</ele>
        <time>2018-02-06T12:53:53Z</time>
      </trkpt>
      <trkpt lat="45.62587" lon="6.65363">
        <ele>2478.9</ele>
        <time>2018-02-06T12:54:11Z</time>
      </trkpt>
      <trkpt lat="45.62591" lon="6.65351">
        <ele>2480.34</ele>
        <time>2018-02-06T12:54:25Z</time>
      </trkpt>
      <trkpt lat="45.62595" lon="6.65343">
        <ele>2482.26</ele>
        <time>2018-02-06T12:54:38Z</time>
      </trkpt>
      <trkpt lat="45.62592" lon="6.65346">
        <ele>2482.74</ele>
        <time>2018-02-06T12:54:55Z</time>
      </trkpt>
      <trkpt lat="45.62585" lon="6.65352">
        <ele>2484.66</ele>
        <time>2018-02-06T12:55:11Z</time>
      </trkpt>
      <trkpt lat="45.6258" lon="6.65357">
        <ele>2485.63</ele>
        <time>2018-02-06T12:55:25Z</time>
      </trkpt>
      <trkpt lat="45.62583" lon="6.65346">
        <ele>2487.07</ele>
        <time>2018-02-06T12:55:40Z</time>
      </trkpt>
      <trkpt lat="45.62587" lon="6.65337">
        <ele>2488.99</ele>
        <time>2018-02-06T12:55:56Z</time>
      </trkpt>
      <trkpt lat="45.62583" lon="6.6534">
        <ele>2489.47</ele>
        <time>2018-02-06T12:56:08Z</time>
      </trkpt>
      <trkpt lat="45.62578" lon="6.65341">
        <ele>2490.91</ele>
        <time>2018-02-06T12:56:21Z</time>
      </trkpt>
      <trkpt lat="45.62574" lon="6.65336">
        <ele>2492.36</ele>
        <time>2018-02-06T12:56:36Z</time>
      </trkpt>
      <trkpt lat="45.62578" lon="6.65333">
        <ele>2493.32</ele>
        <time>2018-02-06T12:56:55Z</time>
      </trkpt>
      <trkpt lat="45.62583" lon="6.65325">
        <ele>2494.76</ele>
        <time>2018-02-06T12:57:10Z</time>
      </trkpt>
      <trkpt lat="45.62587" lon="6.6532">
        <ele>2497.16</ele>
        <time>2018-02-06T12:57:24Z</time>
      </trkpt>
      <trkpt lat="45.62592" lon="6.65315">
        <ele>2498.6</ele>
        <time>2018-02-06T12:57:38Z</time>
      </trkpt>
      <trkpt lat="45.62593" lon="6.65312">
        <ele>2500.05</ele>
        <time>2018-02-06T12:57:51Z</time>
      </trkpt>
      <trkpt lat="45.62589" lon="6.65314">
        <ele>2500.53</ele>
        <time>2018-02-06T12:58:09Z</time>
      </trkpt>
      <trkpt lat="45.62583" lon="6.65316">
        <ele>2501.49</ele>
        <time>2018-02-06T12:58:22Z</time>
      </trkpt>
      <trkpt lat="45.62581" lon="6.65314">
        <ele>2502.45</ele>
        <time>2018-02-06T12:58:34Z</time>
      </trkpt>
      <trkpt lat="45.62582" lon="6.65313">
        <ele>2502.93</ele>
        <time>2018-02-06T12:58:52Z</time>
      </trkpt>
      <trkpt lat="45.62583" lon="6.65314">
        <ele>2502.93</ele>
        <time>2018-02-06T12:59:13Z</time>
      </trkpt>
      <trkpt lat="45.62588" lon="6.65308">
        <ele>2503.89</ele>
        <time>2018-02-06T12:59:30Z</time>
      </trkpt>
      <trkpt lat="45.62594" lon="6.65303">
        <ele>2505.81</ele>
        <time>2018-02-06T12:59:46Z</time>
      </trkpt>
      <trkpt lat="45.62595" lon="6.653">
        <ele>2506.29</ele>
        <time>2018-02-06T12:59:59Z</time>
      </trkpt>
      <trkpt lat="45.62593" lon="6.65305">
        <ele>2506.29</ele>
        <time>2018-02-06T13:00:24Z</time>
      </trkpt>
      <trkpt lat="45.62588" lon="6.65303">
        <ele>2507.74</ele>
        <time>2018-02-06T13:00:49Z</time>
      </trkpt>
      <trkpt lat="45.62582" lon="6.65304">
        <ele>2508.7</ele>
        <time>2018-02-06T13:01:03Z</time>
      </trkpt>
      <trkpt lat="45.62584" lon="6.653">
        <ele>2509.18</ele>
        <time>2018-02-06T13:01:17Z</time>
      </trkpt>
      <trkpt lat="45.62589" lon="6.65296">
        <ele>2510.62</ele>
        <time>2018-02-06T13:01:30Z</time>
      </trkpt>
      <trkpt lat="45.62591" lon="6.65294">
        <ele>2511.1</ele>
        <time>2018-02-06T13:01:46Z</time>
      </trkpt>
      <trkpt lat="45.62592" lon="6.65291">
        <ele>2511.1</ele>
        <time>2018-02-06T13:02:17Z</time>
      </trkpt>
      <trkpt lat="45.62599" lon="6.65289">
        <ele>2513.02</ele>
        <time>2018-02-06T13:02:36Z</time>
      </trkpt>
      <trkpt lat="45.62595" lon="6.65288">
        <ele>2513.5</ele>
        <time>2018-02-06T13:02:50Z</time>
      </trkpt>
      <trkpt lat="45.62588" lon="6.65289">
        <ele>2514.47</ele>
        <time>2018-02-06T13:03:03Z</time>
      </trkpt>
      <trkpt lat="45.62583" lon="6.65289">
        <ele>2516.39</ele>
        <time>2018-02-06T13:03:15Z</time>
      </trkpt>
      <trkpt lat="45.62581" lon="6.65288">
        <ele>2517.83</ele>
        <time>2018-02-06T13:03:29Z</time>
      </trkpt>
      <trkpt lat="45.62583" lon="6.65284">
        <ele>2517.83</ele>
        <time>2018-02-06T13:03:44Z</time>
      </trkpt>
      <trkpt lat="45.62589" lon="6.6528">
        <ele>2519.75</ele>
        <time>2018-02-06T13:03:57Z</time>
      </trkpt>
      <trkpt lat="45.62593" lon="6.65275">
        <ele>2521.19</ele>
        <time>2018-02-06T13:04:12Z</time>
      </trkpt>
      <trkpt lat="45.62593" lon="6.65275">
        <ele>2522.16</ele>
        <time>2018-02-06T13:04:29Z</time>
      </trkpt>
      <trkpt lat="45.62587" lon="6.65277">
        <ele>2523.12</ele>
        <time>2018-02-06T13:04:41Z</time>
      </trkpt>
      <trkpt lat="45.62582" lon="6.65277">
        <ele>2525.04</ele>
        <time>2018-02-06T13:04:54Z</time>
      </trkpt>
      <trkpt lat="45.62581" lon="6.65275">
        <ele>2525.04</ele>
        <time>2018-02-06T13:05:08Z</time>
      </trkpt>
      <trkpt lat="45.62583" lon="6.65271">
        <ele>2525.52</ele>
        <time>2018-02-06T13:05:25Z</time>
      </trkpt>
      <trkpt lat="45.62587" lon="6.65268">
        <ele>2526.96</ele>
        <time>2018-02-06T13:05:37Z</time>
      </trkpt>
      <trkpt lat="45.6259" lon="6.65262">
        <ele>2528.4</ele>
        <time>2018-02-06T13:05:50Z</time>
      </trkpt>
      <trkpt lat="45.62595" lon="6.65259">
        <ele>2529.85</ele>
        <time>2018-02-06T13:06:02Z</time>
      </trkpt>
      <trkpt lat="45.62594" lon="6.65258">
        <ele>2530.33</ele>
        <time>2018-02-06T13:06:16Z</time>
      </trkpt>
      <trkpt lat="45.62587" lon="6.65259">
        <ele>2531.77</ele>
        <time>2018-02-06T13:06:31Z</time>
      </trkpt>
      <trkpt lat="45.62582" lon="6.6526">
        <ele>2533.21</ele>
        <time>2018-02-06T13:06:45Z</time>
      </trkpt>
      <trkpt lat="45.62586" lon="6.65253">
        <ele>2534.17</ele>
        <time>2018-02-06T13:06:59Z</time>
      </trkpt>
      <trkpt lat="45.62591" lon="6.65244">
        <ele>2535.61</ele>
        <time>2018-02-06T13:07:10Z</time>
      </trkpt>
      <trkpt lat="45.62594" lon="6.65241">
        <ele>2537.06</ele>
        <time>2018-02-06T13:07:23Z</time>
      </trkpt>
      <trkpt lat="45.6259" lon="6.65243">
        <ele>2537.06</ele>
        <time>2018-02-06T13:07:36Z</time>
      </trkpt>
      <trkpt lat="45.62585" lon="6.65241">
        <ele>2538.98</ele>
        <time>2018-02-06T13:07:51Z</time>
      </trkpt>
      <trkpt lat="45.62588" lon="6.65235">
        <ele>2539.94</ele>
        <time>2018-02-06T13:08:04Z</time>
      </trkpt>
      <trkpt lat="45.62593" lon="6.6523">
        <ele>2540.9</ele>
        <time>2018-02-06T13:08:17Z</time>
      </trkpt>
      <trkpt lat="45.62599" lon="6.65232">
        <ele>2543.31</ele>
        <time>2018-02-06T13:08:30Z</time>
      </trkpt>
      <trkpt lat="45.62598" lon="6.65232">
        <ele>2543.31</ele>
        <time>2018-02-06T13:08:46Z</time>
      </trkpt>
      <trkpt lat="45.62595" lon="6.65226">
        <ele>2544.27</ele>
        <time>2018-02-06T13:08:57Z</time>
      </trkpt>
      <trkpt lat="45.62588" lon="6.65224">
        <ele>2545.71</ele>
        <time>2018-02-06T13:09:11Z</time>
      </trkpt>
      <trkpt lat="45.62584" lon="6.65222">
        <ele>2547.15</ele>
        <time>2018-02-06T13:09:24Z</time>
      </trkpt>
      <trkpt lat="45.62589" lon="6.65217">
        <ele>2548.59</ele>
        <time>2018-02-06T13:09:36Z</time>
      </trkpt>
      <trkpt lat="45.62596" lon="6.65216">
        <ele>2550.03</ele>
        <time>2018-02-06T13:09:50Z</time>
      </trkpt>
      <trkpt lat="45.62598" lon="6.65216">
        <ele>2550.51</ele>
        <time>2018-02-06T13:10:05Z</time>
      </trkpt>
      <trkpt lat="45.62594" lon="6.65211">
        <ele>2551.96</ele>
        <time>2018-02-06T13:10:20Z</time>
      </trkpt>
      <trkpt lat="45.62587" lon="6.65211">
        <ele>2553.4</ele>
        <time>2018-02-06T13:10:34Z</time>
      </trkpt>
      <trkpt lat="45.62583" lon="6.65211">
        <ele>2555.32</ele>
        <time>2018-02-06T13:10:44Z</time>
      </trkpt>
      <trkpt lat="45.62586" lon="6.65207">
        <ele>2555.32</ele>
        <time>2018-02-06T13:10:59Z</time>
      </trkpt>
      <trkpt lat="45.62592" lon="6.65201">
        <ele>2556.28</ele>
        <time>2018-02-06T13:11:13Z</time>
      </trkpt>
      <trkpt lat="45.62597" lon="6.65198">
        <ele>2557.24</ele>
        <time>2018-02-06T13:11:27Z</time>
      </trkpt>
      <trkpt lat="45.62599" lon="6.65197">
        <ele>2559.17</ele>
        <time>2018-02-06T13:11:41Z</time>
      </trkpt>
      <trkpt lat="45.62597" lon="6.65198">
        <ele>2559.17</ele>
        <time>2018-02-06T13:12:03Z</time>
      </trkpt>
      <trkpt lat="45.62591" lon="6.65192">
        <ele>2560.61</ele>
        <time>2018-02-06T13:12:17Z</time>
      </trkpt>
      <trkpt lat="45.62594" lon="6.6519">
        <ele>2561.57</ele>
        <time>2018-02-06T13:12:33Z</time>
      </trkpt>
      <trkpt lat="45.62598" lon="6.65187">
        <ele>2562.53</ele>
        <time>2018-02-06T13:12:51Z</time>
      </trkpt>
      <trkpt lat="45.62603" lon="6.65184">
        <ele>2563.97</ele>
        <time>2018-02-06T13:13:05Z</time>
      </trkpt>
      <trkpt lat="45.62606" lon="6.65181">
        <ele>2564.93</ele>
        <time>2018-02-06T13:13:20Z</time>
      </trkpt>
      <trkpt lat="45.62603" lon="6.6518">
        <ele>2565.9</ele>
        <time>2018-02-06T13:13:34Z</time>
      </trkpt>
      <trkpt lat="45.62601" lon="6.65184">
        <ele>2565.42</ele>
        <time>2018-02-06T13:14:13Z</time>
      </trkpt>
      <trkpt lat="45.62601" lon="6.65182">
        <ele>2565.9</ele>
        <time>2018-02-06T13:14:43Z</time>
      </trkpt>
      <trkpt lat="45.62602" lon="6.65182">
        <ele>2565.9</ele>
        <time>2018-02-06T13:15:06Z</time>
      </trkpt>
      <trkpt lat="45.62602" lon="6.65181">
        <ele>2565.42</ele>
        <time>2018-02-06T13:15:34Z</time>
      </trkpt>
      <trkpt lat="45.626" lon="6.65176">
        <ele>2566.38</ele>
        <time>2018-02-06T13:15:59Z</time>
      </trkpt>
      <trkpt lat="45.62595" lon="6.65173">
        <ele>2567.82</ele>
        <time>2018-02-06T13:16:13Z</time>
      </trkpt>
      <trkpt lat="45.62595" lon="6.65173">
        <ele>2567.34</ele>
        <time>2018-02-06T13:16:33Z</time>
      </trkpt>
      <trkpt lat="45.62593" lon="6.65175">
        <ele>2566.86</ele>
        <time>2018-02-06T13:17:08Z</time>
      </trkpt>
      <trkpt lat="45.62588" lon="6.65175">
        <ele>2568.3</ele>
        <time>2018-02-06T13:17:20Z</time>
      </trkpt>
      <trkpt lat="45.62589" lon="6.65171">
        <ele>2569.74</ele>
        <time>2018-02-06T13:17:37Z</time>
      </trkpt>
      <trkpt lat="45.62593" lon="6.65164">
        <ele>2572.14</ele>
        <time>2018-02-06T13:17:51Z</time>
      </trkpt>
      <trkpt lat="45.62595" lon="6.65155">
        <ele>2574.07</ele>
        <time>2018-02-06T13:18:07Z</time>
      </trkpt>
      <trkpt lat="45.62598" lon="6.6515">
        <ele>2575.51</ele>
        <time>2018-02-06T13:18:22Z</time>
      </trkpt>
      <trkpt lat="45.62598" lon="6.65151">
        <ele>2575.03</ele>
        <time>2018-02-06T13:18:36Z</time>
      </trkpt>
      <trkpt lat="45.62593" lon="6.65154">
        <ele>2575.51</ele>
        <time>2018-02-06T13:18:48Z</time>
      </trkpt>
      <trkpt lat="45.62587" lon="6.65154">
        <ele>2577.91</ele>
        <time>2018-02-06T13:19:02Z</time>
      </trkpt>
      <trkpt lat="45.62582" lon="6.65152">
        <ele>2578.39</ele>
        <time>2018-02-06T13:19:17Z</time>
      </trkpt>
      <trkpt lat="45.62585" lon="6.65149">
        <ele>2579.35</ele>
        <time>2018-02-06T13:19:33Z</time>
      </trkpt>
      <trkpt lat="45.62588" lon="6.65144">
        <ele>2580.8</ele>
        <time>2018-02-06T13:19:48Z</time>
      </trkpt>
      <trkpt lat="45.6259" lon="6.65139">
        <ele>2581.76</ele>
        <time>2018-02-06T13:20:00Z</time>
      </trkpt>
      <trkpt lat="45.62591" lon="6.65134">
        <ele>2583.2</ele>
        <time>2018-02-06T13:20:17Z</time>
      </trkpt>
      <trkpt lat="45.62592" lon="6.6513">
        <ele>2585.12</ele>
        <time>2018-02-06T13:20:33Z</time>
      </trkpt>
      <trkpt lat="45.62587" lon="6.65136">
        <ele>2584.64</ele>
        <time>2018-02-06T13:20:52Z</time>
      </trkpt>
      <trkpt lat="45.62582" lon="6.65136">
        <ele>2588.01</ele>
        <time>2018-02-06T13:21:03Z</time>
      </trkpt>
      <trkpt lat="45.62583" lon="6.65133">
        <ele>2588.49</ele>
        <time>2018-02-06T13:21:18Z</time>
      </trkpt>
      <trkpt lat="45.62585" lon="6.65127">
        <ele>2589.45</ele>
        <time>2018-02-06T13:21:30Z</time>
      </trkpt>
      <trkpt lat="45.62589" lon="6.6512">
        <ele>2590.89</ele>
        <time>2018-02-06T13:21:45Z</time>
      </trkpt>
      <trkpt lat="45.62587" lon="6.65122">
        <ele>2591.37</ele>
        <time>2018-02-06T13:21:58Z</time>
      </trkpt>
      <trkpt lat="45.62583" lon="6.65125">
        <ele>2591.85</ele>
        <time>2018-02-06T13:22:10Z</time>
      </trkpt>
      <trkpt lat="45.6258" lon="6.65123">
        <ele>2592.81</ele>
        <time>2018-02-06T13:22:24Z</time>
      </trkpt>
      <trkpt lat="45.62577" lon="6.65119">
        <ele>2594.25</ele>
        <time>2018-02-06T13:22:38Z</time>
      </trkpt>
      <trkpt lat="45.62578" lon="6.65117">
        <ele>2595.22</ele>
        <time>2018-02-06T13:22:53Z</time>
      </trkpt>
      <trkpt lat="45.62582" lon="6.65115">
        <ele>2597.14</ele>
        <time>2018-02-06T13:23:09Z</time>
      </trkpt>
      <trkpt lat="45.62585" lon="6.65107">
        <ele>2597.62</ele>
        <time>2018-02-06T13:23:22Z</time>
      </trkpt>
      <trkpt lat="45.62588" lon="6.65102">
        <ele>2600.02</ele>
        <time>2018-02-06T13:23:36Z</time>
      </trkpt>
      <trkpt lat="45.62587" lon="6.65096">
        <ele>2601.95</ele>
        <time>2018-02-06T13:23:50Z</time>
      </trkpt>
      <trkpt lat="45.62587" lon="6.65089">
        <ele>2602.91</ele>
        <time>2018-02-06T13:24:03Z</time>
      </trkpt>
      <trkpt lat="45.62583" lon="6.65092">
        <ele>2604.35</ele>
        <time>2018-02-06T13:24:15Z</time>
      </trkpt>
      <trkpt lat="45.62579" lon="6.65096">
        <ele>2604.83</ele>
        <time>2018-02-06T13:24:28Z</time>
      </trkpt>
      <trkpt lat="45.62578" lon="6.65097">
        <ele>2604.35</ele>
        <time>2018-02-06T13:24:50Z</time>
      </trkpt>
      <trkpt lat="45.62579" lon="6.65096">
        <ele>2605.79</ele>
        <time>2018-02-06T13:25:03Z</time>
      </trkpt>
      <trkpt lat="45.6258" lon="6.65096">
        <ele>2604.35</ele>
        <time>2018-02-06T13:25:10Z</time>
      </trkpt>
      <trkpt lat="45.62578" lon="6.65094">
        <ele>2604.35</ele>
        <time>2018-02-06T13:25:39Z</time>
      </trkpt>
      <trkpt lat="45.62578" lon="6.65097">
        <ele>2603.39</ele>
        <time>2018-02-06T13:26:14Z</time>
      </trkpt>
      <trkpt lat="45.62578" lon="6.65095">
        <ele>2603.87</ele>
        <time>2018-02-06T13:26:53Z</time>
      </trkpt>
      <trkpt lat="45.6258" lon="6.65093">
        <ele>2605.31</ele>
        <time>2018-02-06T13:27:18Z</time>
      </trkpt>
      <trkpt lat="45.62579" lon="6.6509">
        <ele>2604.83</ele>
        <time>2018-02-06T13:27:37Z</time>
      </trkpt>
      <trkpt lat="45.62578" lon="6.65092">
        <ele>2604.83</ele>
        <time>2018-02-06T13:27:59Z</time>
      </trkpt>
      <trkpt lat="45.62576" lon="6.65092">
        <ele>2604.35</ele>
        <time>2018-02-06T13:28:30Z</time>
      </trkpt>
      <trkpt lat="45.62573" lon="6.65091">
        <ele>2604.35</ele>
        <time>2018-02-06T13:28:59Z</time>
      </trkpt>
      <trkpt lat="45.62578" lon="6.65091">
        <ele>2603.87</ele>
        <time>2018-02-06T13:29:38Z</time>
      </trkpt>
      <trkpt lat="45.62578" lon="6.65092">
        <ele>2604.35</ele>
        <time>2018-02-06T13:30:14Z</time>
      </trkpt>
      <trkpt lat="45.62579" lon="6.65094">
        <ele>2603.87</ele>
        <time>2018-02-06T13:31:00Z</time>
      </trkpt>
      <trkpt lat="45.62579" lon="6.65094">
        <ele>2604.83</ele>
        <time>2018-02-06T13:31:38Z</time>
      </trkpt>
      <trkpt lat="45.62579" lon="6.65091">
        <ele>2604.35</ele>
        <time>2018-02-06T13:32:18Z</time>
      </trkpt>
      <trkpt lat="45.62579" lon="6.65093">
        <ele>2603.87</ele>
        <time>2018-02-06T13:32:53Z</time>
      </trkpt>
      <trkpt lat="45.62579" lon="6.65091">
        <ele>2603.39</ele>
        <time>2018-02-06T13:33:33Z</time>
      </trkpt>
      <trkpt lat="45.6258" lon="6.65093">
        <ele>2603.39</ele>
        <time>2018-02-06T13:34:10Z</time>
      </trkpt>
      <trkpt lat="45.6258" lon="6.65093">
        <ele>2604.35</ele>
        <time>2018-02-06T13:34:53Z</time>
      </trkpt>
      <trkpt lat="45.6258" lon="6.65093">
        <ele>2603.87</ele>
        <time>2018-02-06T13:35:27Z</time>
      </trkpt>
      <trkpt lat="45.6258" lon="6.65094">
        <ele>2603.87</ele>
        <time>2018-02-06T13:36:08Z</time>
      </trkpt>
      <trkpt lat="45.6258" lon="6.65094">
        <ele>2603.39</ele>
        <time>2018-02-06T13:36:48Z</time>
      </trkpt>
      <trkpt lat="45.62581" lon="6.65093">
        <ele>2603.39</ele>
        <time>2018-02-06T13:37:09Z</time>
      </trkpt>
      <trkpt lat="45.62579" lon="6.65096">
        <ele>2604.83</ele>
        <time>2018-02-06T13:37:22Z</time>
      </trkpt>
      <trkpt lat="45.62581" lon="6.65094">
        <ele>2604.35</ele>
        <time>2018-02-06T13:37:43Z</time>
      </trkpt>
      <trkpt lat="45.62581" lon="6.65095">
        <ele>2604.35</ele>
        <time>2018-02-06T13:38:04Z</time>
      </trkpt>
      <trkpt lat="45.6258" lon="6.65095">
        <ele>2604.83</ele>
        <time>2018-02-06T13:38:18Z</time>
      </trkpt>
      <trkpt lat="45.6258" lon="6.65096">
        <ele>2604.83</ele>
        <time>2018-02-06T13:38:42Z</time>
      </trkpt>
      <trkpt lat="45.62582" lon="6.65095">
        <ele>2604.35</ele>
        <time>2018-02-06T13:39:06Z</time>
      </trkpt>
      <trkpt lat="45.62581" lon="6.65095">
        <ele>2604.35</ele>
        <time>2018-02-06T13:39:36Z</time>
      </trkpt>
      <trkpt lat="45.62581" lon="6.65095">
        <ele>2604.35</ele>
        <time>2018-02-06T13:40:08Z</time>
      </trkpt>
      <trkpt lat="45.6258" lon="6.65096">
        <ele>2603.87</ele>
        <time>2018-02-06T13:40:28Z</time>
      </trkpt>
      <trkpt lat="45.6258" lon="6.65099">
        <ele>2603.39</ele>
        <time>2018-02-06T13:40:38Z</time>
      </trkpt>
      <trkpt lat="45.62584" lon="6.65101">
        <ele>2601.46</ele>
        <time>2018-02-06T13:40:43Z</time>
      </trkpt>
      <trkpt lat="45.62583" lon="6.65106">
        <ele>2600.5</ele>
        <time>2018-02-06T13:40:45Z</time>
      </trkpt>
      <trkpt lat="45.62583" lon="6.65107">
        <ele>2599.06</ele>
        <time>2018-02-06T13:40:47Z</time>
      </trkpt>
      <trkpt lat="45.62582" lon="6.6511">
        <ele>2597.62</ele>
        <time>2018-02-06T13:40:49Z</time>
      </trkpt>
      <trkpt lat="45.62585" lon="6.65113">
        <ele>2595.22</ele>
        <time>2018-02-06T13:40:54Z</time>
      </trkpt>
      <trkpt lat="45.62584" lon="6.65122">
        <ele>2592.33</ele>
        <time>2018-02-06T13:40:58Z</time>
      </trkpt>
      <trkpt lat="45.62584" lon="6.65125">
        <ele>2589.45</ele>
        <time>2018-02-06T13:41:03Z</time>
      </trkpt>
      <trkpt lat="45.62593" lon="6.65124">
        <ele>2586.56</ele>
        <time>2018-02-06T13:41:07Z</time>
      </trkpt>
      <trkpt lat="45.62604" lon="6.65116">
        <ele>2582.24</ele>
        <time>2018-02-06T13:41:14Z</time>
      </trkpt>
      <trkpt lat="45.62608" lon="6.65115">
        <ele>2580.32</ele>
        <time>2018-02-06T13:41:18Z</time>
      </trkpt>
      <trkpt lat="45.62607" lon="6.65134">
        <ele>2577.91</ele>
        <time>2018-02-06T13:41:23Z</time>
      </trkpt>
      <trkpt lat="45.62601" lon="6.65143">
        <ele>2576.95</ele>
        <time>2018-02-06T13:41:27Z</time>
      </trkpt>
      <trkpt lat="45.62598" lon="6.6515">
        <ele>2575.03</ele>
        <time>2018-02-06T13:41:31Z</time>
      </trkpt>
      <trkpt lat="45.626" lon="6.65166">
        <ele>2570.7</ele>
        <time>2018-02-06T13:41:37Z</time>
      </trkpt>
      <trkpt lat="45.62595" lon="6.65169">
        <ele>2567.82</ele>
        <time>2018-02-06T13:41:41Z</time>
      </trkpt>
      <trkpt lat="45.62595" lon="6.65169">
        <ele>2567.82</ele>
        <time>2018-02-06T13:41:42Z</time>
      </trkpt>
      <trkpt lat="45.62596" lon="6.65169">
        <ele>2568.78</ele>
        <time>2018-02-06T13:41:57Z</time>
      </trkpt>
      <trkpt lat="45.62596" lon="6.65168">
        <ele>2567.82</ele>
        <time>2018-02-06T13:42:19Z</time>
      </trkpt>
      <trkpt lat="45.62596" lon="6.65168">
        <ele>2568.3</ele>
        <time>2018-02-06T13:42:42Z</time>
      </trkpt>
      <trkpt lat="45.62595" lon="6.6517">
        <ele>2567.82</ele>
        <time>2018-02-06T13:43:05Z</time>
      </trkpt>
      <trkpt lat="45.62591" lon="6.65177">
        <ele>2566.38</ele>
        <time>2018-02-06T13:43:09Z</time>
      </trkpt>
      <trkpt lat="45.62598" lon="6.65183">
        <ele>2563.49</ele>
        <time>2018-02-06T13:43:13Z</time>
      </trkpt>
      <trkpt lat="45.62599" lon="6.65195">
        <ele>2559.17</ele>
        <time>2018-02-06T13:43:17Z</time>
      </trkpt>
      <trkpt lat="45.62588" lon="6.65198">
        <ele>2557.73</ele>
        <time>2018-02-06T13:43:20Z</time>
      </trkpt>
      <trkpt lat="45.62595" lon="6.65207">
        <ele>2554.36</ele>
        <time>2018-02-06T13:43:25Z</time>
      </trkpt>
      <trkpt lat="45.62589" lon="6.65217">
        <ele>2551</ele>
        <time>2018-02-06T13:43:28Z</time>
      </trkpt>
      <trkpt lat="45.62594" lon="6.65222">
        <ele>2547.63</ele>
        <time>2018-02-06T13:43:31Z</time>
      </trkpt>
      <trkpt lat="45.62591" lon="6.65228">
        <ele>2542.82</ele>
        <time>2018-02-06T13:43:35Z</time>
      </trkpt>
      <trkpt lat="45.62587" lon="6.65231">
        <ele>2542.34</ele>
        <time>2018-02-06T13:43:37Z</time>
      </trkpt>
      <trkpt lat="45.62593" lon="6.65238">
        <ele>2538.5</ele>
        <time>2018-02-06T13:43:40Z</time>
      </trkpt>
      <trkpt lat="45.62587" lon="6.65246">
        <ele>2534.17</ele>
        <time>2018-02-06T13:43:43Z</time>
      </trkpt>
      <trkpt lat="45.62585" lon="6.65248">
        <ele>2534.65</ele>
        <time>2018-02-06T13:43:44Z</time>
      </trkpt>
      <trkpt lat="45.62587" lon="6.65258">
        <ele>2530.33</ele>
        <time>2018-02-06T13:43:49Z</time>
      </trkpt>
      <trkpt lat="45.62589" lon="6.65256">
        <ele>2529.37</ele>
        <time>2018-02-06T13:43:51Z</time>
      </trkpt>
      <trkpt lat="45.62587" lon="6.65268">
        <ele>2525.04</ele>
        <time>2018-02-06T13:43:55Z</time>
      </trkpt>
      <trkpt lat="45.62582" lon="6.65271">
        <ele>2523.12</ele>
        <time>2018-02-06T13:43:58Z</time>
      </trkpt>
      <trkpt lat="45.62586" lon="6.65281">
        <ele>2518.31</ele>
        <time>2018-02-06T13:44:02Z</time>
      </trkpt>
      <trkpt lat="45.6259" lon="6.65279">
        <ele>2516.87</ele>
        <time>2018-02-06T13:44:04Z</time>
      </trkpt>
      <trkpt lat="45.62592" lon="6.6528">
        <ele>2516.39</ele>
        <time>2018-02-06T13:44:06Z</time>
      </trkpt>
      <trkpt lat="45.62587" lon="6.65297">
        <ele>2511.58</ele>
        <time>2018-02-06T13:44:10Z</time>
      </trkpt>
      <trkpt lat="45.62583" lon="6.653">
        <ele>2508.22</ele>
        <time>2018-02-06T13:44:11Z</time>
      </trkpt>
      <trkpt lat="45.62582" lon="6.65301">
        <ele>2505.81</ele>
        <time>2018-02-06T13:44:14Z</time>
      </trkpt>
      <trkpt lat="45.62583" lon="6.653">
        <ele>2505.81</ele>
        <time>2018-02-06T13:44:19Z</time>
      </trkpt>
      <trkpt lat="45.62574" lon="6.65311">
        <ele>2502.93</ele>
        <time>2018-02-06T13:44:25Z</time>
      </trkpt>
      <trkpt lat="45.62577" lon="6.65318">
        <ele>2499.08</ele>
        <time>2018-02-06T13:44:28Z</time>
      </trkpt>
      <trkpt lat="45.62575" lon="6.65328">
        <ele>2494.28</ele>
        <time>2018-02-06T13:44:31Z</time>
      </trkpt>
      <trkpt lat="45.62574" lon="6.65339">
        <ele>2488.99</ele>
        <time>2018-02-06T13:44:35Z</time>
      </trkpt>
      <trkpt lat="45.62574" lon="6.65334">
        <ele>2488.03</ele>
        <time>2018-02-06T13:44:46Z</time>
      </trkpt>
      <trkpt lat="45.62575" lon="6.65334">
        <ele>2488.99</ele>
        <time>2018-02-06T13:45:04Z</time>
      </trkpt>
      <trkpt lat="45.62577" lon="6.65335">
        <ele>2488.51</ele>
        <time>2018-02-06T13:45:20Z</time>
      </trkpt>
      <trkpt lat="45.62579" lon="6.65337">
        <ele>2487.55</ele>
        <time>2018-02-06T13:45:40Z</time>
      </trkpt>
      <trkpt lat="45.62578" lon="6.65336">
        <ele>2487.07</ele>
        <time>2018-02-06T13:45:56Z</time>
      </trkpt>
      <trkpt lat="45.62579" lon="6.65336">
        <ele>2487.07</ele>
        <time>2018-02-06T13:46:19Z</time>
      </trkpt>
      <trkpt lat="45.62579" lon="6.65337">
        <ele>2487.55</ele>
        <time>2018-02-06T13:46:27Z</time>
      </trkpt>
      <trkpt lat="45.62588" lon="6.65338">
        <ele>2485.15</ele>
        <time>2018-02-06T13:46:33Z</time>
      </trkpt>
      <trkpt lat="45.62591" lon="6.65337">
        <ele>2483.7</ele>
        <time>2018-02-06T13:46:37Z</time>
      </trkpt>
      <trkpt lat="45.62596" lon="6.6534">
        <ele>2482.74</ele>
        <time>2018-02-06T13:46:41Z</time>
      </trkpt>
      <trkpt lat="45.62596" lon="6.65351">
        <ele>2478.9</ele>
        <time>2018-02-06T13:46:44Z</time>
      </trkpt>
      <trkpt lat="45.62601" lon="6.6536">
        <ele>2474.09</ele>
        <time>2018-02-06T13:46:47Z</time>
      </trkpt>
      <trkpt lat="45.62607" lon="6.6537">
        <ele>2465.92</ele>
        <time>2018-02-06T13:46:51Z</time>
      </trkpt>
      <trkpt lat="45.62613" lon="6.65371">
        <ele>2464.48</ele>
        <time>2018-02-06T13:46:53Z</time>
      </trkpt>
      <trkpt lat="45.6262" lon="6.65372">
        <ele>2462.07</ele>
        <time>2018-02-06T13:46:57Z</time>
      </trkpt>
      <trkpt lat="45.62623" lon="6.65386">
        <ele>2458.23</ele>
        <time>2018-02-06T13:47:01Z</time>
      </trkpt>
      <trkpt lat="45.62623" lon="6.65397">
        <ele>2452.94</ele>
        <time>2018-02-06T13:47:03Z</time>
      </trkpt>
      <trkpt lat="45.62625" lon="6.65401">
        <ele>2453.9</ele>
        <time>2018-02-06T13:47:04Z</time>
      </trkpt>
      <trkpt lat="45.62625" lon="6.65407">
        <ele>2450.54</ele>
        <time>2018-02-06T13:47:05Z</time>
      </trkpt>
      <trkpt lat="45.62618" lon="6.65416">
        <ele>2443.33</ele>
        <time>2018-02-06T13:47:07Z</time>
      </trkpt>
      <trkpt lat="45.62608" lon="6.65423">
        <ele>2439.96</ele>
        <time>2018-02-06T13:47:10Z</time>
      </trkpt>
      <trkpt lat="45.62608" lon="6.65426">
        <ele>2440.44</ele>
        <time>2018-02-06T13:47:11Z</time>
      </trkpt>
      <trkpt lat="45.62619" lon="6.65429">
        <ele>2437.08</ele>
        <time>2018-02-06T13:47:15Z</time>
      </trkpt>
      <trkpt lat="45.62619" lon="6.65439">
        <ele>2433.71</ele>
        <time>2018-02-06T13:47:17Z</time>
      </trkpt>
      <trkpt lat="45.62616" lon="6.65446">
        <ele>2430.83</ele>
        <time>2018-02-06T13:47:18Z</time>
      </trkpt>
      <trkpt lat="45.62609" lon="6.65456">
        <ele>2427.47</ele>
        <time>2018-02-06T13:47:23Z</time>
      </trkpt>
      <trkpt lat="45.62607" lon="6.65455">
        <ele>2427.47</ele>
        <time>2018-02-06T13:47:36Z</time>
      </trkpt>
      <trkpt lat="45.62589" lon="6.65465">
        <ele>2423.62</ele>
        <time>2018-02-06T13:47:44Z</time>
      </trkpt>
      <trkpt lat="45.62587" lon="6.65484">
        <ele>2419.3</ele>
        <time>2018-02-06T13:47:47Z</time>
      </trkpt>
      <trkpt lat="45.62587" lon="6.65498">
        <ele>2417.37</ele>
        <time>2018-02-06T13:47:49Z</time>
      </trkpt>
      <trkpt lat="45.62587" lon="6.65515">
        <ele>2414.01</ele>
        <time>2018-02-06T13:47:52Z</time>
      </trkpt>
      <trkpt lat="45.62586" lon="6.65527">
        <ele>2412.57</ele>
        <time>2018-02-06T13:47:54Z</time>
      </trkpt>
      <trkpt lat="45.62586" lon="6.65549">
        <ele>2410.16</ele>
        <time>2018-02-06T13:47:57Z</time>
      </trkpt>
      <trkpt lat="45.62581" lon="6.65556">
        <ele>2405.36</ele>
        <time>2018-02-06T13:48:00Z</time>
      </trkpt>
      <trkpt lat="45.62581" lon="6.65555">
        <ele>2403.91</ele>
        <time>2018-02-06T13:48:14Z</time>
      </trkpt>
      <trkpt lat="45.62582" lon="6.65553">
        <ele>2405.36</ele>
        <time>2018-02-06T13:48:33Z</time>
      </trkpt>
      <trkpt lat="45.62581" lon="6.65555">
        <ele>2405.84</ele>
        <time>2018-02-06T13:48:40Z</time>
      </trkpt>
      <trkpt lat="45.62578" lon="6.65565">
        <ele>2403.91</ele>
        <time>2018-02-06T13:48:43Z</time>
      </trkpt>
      <trkpt lat="45.62581" lon="6.65574">
        <ele>2402.95</ele>
        <time>2018-02-06T13:48:45Z</time>
      </trkpt>
      <trkpt lat="45.62571" lon="6.65579">
        <ele>2397.18</ele>
        <time>2018-02-06T13:48:48Z</time>
      </trkpt>
      <trkpt lat="45.6257" lon="6.65589">
        <ele>2395.26</ele>
        <time>2018-02-06T13:48:52Z</time>
      </trkpt>
      <trkpt lat="45.62576" lon="6.65598">
        <ele>2392.38</ele>
        <time>2018-02-06T13:48:55Z</time>
      </trkpt>
      <trkpt lat="45.62569" lon="6.65606">
        <ele>2387.57</ele>
        <time>2018-02-06T13:48:57Z</time>
      </trkpt>
      <trkpt lat="45.62562" lon="6.65608">
        <ele>2383.73</ele>
        <time>2018-02-06T13:48:59Z</time>
      </trkpt>
      <trkpt lat="45.62559" lon="6.65608">
        <ele>2384.21</ele>
        <time>2018-02-06T13:49:00Z</time>
      </trkpt>
      <trkpt lat="45.62557" lon="6.65609">
        <ele>2383.25</ele>
        <time>2018-02-06T13:49:01Z</time>
      </trkpt>
      <trkpt lat="45.62546" lon="6.65614">
        <ele>2380.84</ele>
        <time>2018-02-06T13:49:05Z</time>
      </trkpt>
      <trkpt lat="45.62548" lon="6.65629">
        <ele>2376.04</ele>
        <time>2018-02-06T13:49:08Z</time>
      </trkpt>
      <trkpt lat="45.62545" lon="6.65644">
        <ele>2372.67</ele>
        <time>2018-02-06T13:49:10Z</time>
      </trkpt>
      <trkpt lat="45.62542" lon="6.65644">
        <ele>2369.79</ele>
        <time>2018-02-06T13:49:11Z</time>
      </trkpt>
      <trkpt lat="45.62537" lon="6.65653">
        <ele>2364.5</ele>
        <time>2018-02-06T13:49:15Z</time>
      </trkpt>
      <trkpt lat="45.6254" lon="6.65656">
        <ele>2362.58</ele>
        <time>2018-02-06T13:49:16Z</time>
      </trkpt>
      <trkpt lat="45.62535" lon="6.65666">
        <ele>2356.81</ele>
        <time>2018-02-06T13:49:19Z</time>
      </trkpt>
      <trkpt lat="45.62531" lon="6.65665">
        <ele>2356.33</ele>
        <time>2018-02-06T13:49:20Z</time>
      </trkpt>
      <trkpt lat="45.62527" lon="6.65678">
        <ele>2351.04</ele>
        <time>2018-02-06T13:49:23Z</time>
      </trkpt>
      <trkpt lat="45.62533" lon="6.65691">
        <ele>2345.75</ele>
        <time>2018-02-06T13:49:25Z</time>
      </trkpt>
      <trkpt lat="45.62532" lon="6.65698">
        <ele>2341.91</ele>
        <time>2018-02-06T13:49:27Z</time>
      </trkpt>
      <trkpt lat="45.62522" lon="6.65711">
        <ele>2335.18</ele>
        <time>2018-02-06T13:49:30Z</time>
      </trkpt>
      <trkpt lat="45.62522" lon="6.65735">
        <ele>2332.3</ele>
        <time>2018-02-06T13:49:33Z</time>
      </trkpt>
      <trkpt lat="45.62523" lon="6.65742">
        <ele>2331.33</ele>
        <time>2018-02-06T13:49:40Z</time>
      </trkpt>
      <trkpt lat="45.62521" lon="6.65743">
        <ele>2330.85</ele>
        <time>2018-02-06T13:49:43Z</time>
      </trkpt>
      <trkpt lat="45.62512" lon="6.6575">
        <ele>2330.37</ele>
        <time>2018-02-06T13:49:49Z</time>
      </trkpt>
      <trkpt lat="45.62513" lon="6.6575">
        <ele>2329.41</ele>
        <time>2018-02-06T13:50:03Z</time>
      </trkpt>
      <trkpt lat="45.62514" lon="6.65751">
        <ele>2330.37</ele>
        <time>2018-02-06T13:50:05Z</time>
      </trkpt>
      <trkpt lat="45.62513" lon="6.65751">
        <ele>2329.41</ele>
        <time>2018-02-06T13:50:27Z</time>
      </trkpt>
      <trkpt lat="45.62513" lon="6.6575">
        <ele>2329.41</ele>
        <time>2018-02-06T13:50:51Z</time>
      </trkpt>
      <trkpt lat="45.62513" lon="6.6575">
        <ele>2330.37</ele>
        <time>2018-02-06T13:51:18Z</time>
      </trkpt>
      <trkpt lat="45.62515" lon="6.65751">
        <ele>2331.33</ele>
        <time>2018-02-06T13:51:45Z</time>
      </trkpt>
      <trkpt lat="45.62515" lon="6.65751">
        <ele>2330.37</ele>
        <time>2018-02-06T13:52:10Z</time>
      </trkpt>
      <trkpt lat="45.62516" lon="6.65752">
        <ele>2329.89</ele>
        <time>2018-02-06T13:52:40Z</time>
      </trkpt>
      <trkpt lat="45.62515" lon="6.65751">
        <ele>2330.85</ele>
        <time>2018-02-06T13:53:10Z</time>
      </trkpt>
      <trkpt lat="45.62514" lon="6.65751">
        <ele>2328.93</ele>
        <time>2018-02-06T13:53:29Z</time>
      </trkpt>
      <trkpt lat="45.62514" lon="6.6575">
        <ele>2329.41</ele>
        <time>2018-02-06T13:53:48Z</time>
      </trkpt>
      <trkpt lat="45.62515" lon="6.65748">
        <ele>2327.97</ele>
        <time>2018-02-06T13:54:13Z</time>
      </trkpt>
      <trkpt lat="45.62516" lon="6.65745">
        <ele>2327.97</ele>
        <time>2018-02-06T13:54:49Z</time>
      </trkpt>
      <trkpt lat="45.62517" lon="6.65745">
        <ele>2327.97</ele>
        <time>2018-02-06T13:55:24Z</time>
      </trkpt>
      <trkpt lat="45.62517" lon="6.65748">
        <ele>2327.97</ele>
        <time>2018-02-06T13:55:51Z</time>
      </trkpt>
      <trkpt lat="45.62517" lon="6.65748">
        <ele>2327.49</ele>
        <time>2018-02-06T13:56:23Z</time>
      </trkpt>
      <trkpt lat="45.62516" lon="6.65749">
        <ele>2327.97</ele>
        <time>2018-02-06T13:57:05Z</time>
      </trkpt>
      <trkpt lat="45.62516" lon="6.65748">
        <ele>2327.49</ele>
        <time>2018-02-06T13:57:40Z</time>
      </trkpt>
      <trkpt lat="45.62512" lon="6.65748">
        <ele>2327.49</ele>
        <time>2018-02-06T13:58:19Z</time>
      </trkpt>
      <trkpt lat="45.62513" lon="6.65752">
        <ele>2327.97</ele>
        <time>2018-02-06T13:59:04Z</time>
      </trkpt>
      <trkpt lat="45.62516" lon="6.65752">
        <ele>2328.45</ele>
        <time>2018-02-06T13:59:54Z</time>
      </trkpt>
      <trkpt lat="45.62515" lon="6.65751">
        <ele>2327.97</ele>
        <time>2018-02-06T14:00:23Z</time>
      </trkpt>
      <trkpt lat="45.62513" lon="6.65748">
        <ele>2327.49</ele>
        <time>2018-02-06T14:01:04Z</time>
      </trkpt>
      <trkpt lat="45.62515" lon="6.65749">
        <ele>2327.01</ele>
        <time>2018-02-06T14:01:37Z</time>
      </trkpt>
      <trkpt lat="45.62517" lon="6.65746">
        <ele>2327.97</ele>
        <time>2018-02-06T14:02:09Z</time>
      </trkpt>
      <trkpt lat="45.62516" lon="6.65746">
        <ele>2327.49</ele>
        <time>2018-02-06T14:02:44Z</time>
      </trkpt>
      <trkpt lat="45.62515" lon="6.65746">
        <ele>2328.45</ele>
        <time>2018-02-06T14:03:12Z</time>
      </trkpt>
      <trkpt lat="45.62514" lon="6.65747">
        <ele>2329.41</ele>
        <time>2018-02-06T14:03:24Z</time>
      </trkpt>
      <trkpt lat="45.62514" lon="6.65745">
        <ele>2328.45</ele>
        <time>2018-02-06T14:03:47Z</time>
      </trkpt>
      <trkpt lat="45.62521" lon="6.6574">
        <ele>2331.33</ele>
        <time>2018-02-06T14:03:59Z</time>
      </trkpt>
      <trkpt lat="45.62527" lon="6.65732">
        <ele>2332.3</ele>
        <time>2018-02-06T14:04:17Z</time>
      </trkpt>
      <trkpt lat="45.62531" lon="6.65726">
        <ele>2334.22</ele>
        <time>2018-02-06T14:04:29Z</time>
      </trkpt>
      <trkpt lat="45.62534" lon="6.65722">
        <ele>2333.74</ele>
        <time>2018-02-06T14:04:51Z</time>
      </trkpt>
      <trkpt lat="45.62538" lon="6.65726">
        <ele>2335.66</ele>
        <time>2018-02-06T14:05:06Z</time>
      </trkpt>
      <trkpt lat="45.62541" lon="6.65736">
        <ele>2337.58</ele>
        <time>2018-02-06T14:05:18Z</time>
      </trkpt>
      <trkpt lat="45.62543" lon="6.65727">
        <ele>2339.51</ele>
        <time>2018-02-06T14:05:30Z</time>
      </trkpt>
      <trkpt lat="45.62548" lon="6.65726">
        <ele>2341.43</ele>
        <time>2018-02-06T14:05:41Z</time>
      </trkpt>
      <trkpt lat="45.62553" lon="6.65731">
        <ele>2343.83</ele>
        <time>2018-02-06T14:05:54Z</time>
      </trkpt>
      <trkpt lat="45.62558" lon="6.65736">
        <ele>2345.27</ele>
        <time>2018-02-06T14:06:07Z</time>
      </trkpt>
      <trkpt lat="45.62562" lon="6.65731">
        <ele>2347.2</ele>
        <time>2018-02-06T14:06:19Z</time>
      </trkpt>
      <trkpt lat="45.62564" lon="6.6572">
        <ele>2349.12</ele>
        <time>2018-02-06T14:06:35Z</time>
      </trkpt>
      <trkpt lat="45.62568" lon="6.65711">
        <ele>2350.56</ele>
        <time>2018-02-06T14:06:49Z</time>
      </trkpt>
      <trkpt lat="45.62576" lon="6.65707">
        <ele>2352.48</ele>
        <time>2018-02-06T14:07:03Z</time>
      </trkpt>
      <trkpt lat="45.62585" lon="6.65706">
        <ele>2354.41</ele>
        <time>2018-02-06T14:07:18Z</time>
      </trkpt>
      <trkpt lat="45.62591" lon="6.65704">
        <ele>2355.37</ele>
        <time>2018-02-06T14:07:31Z</time>
      </trkpt>
      <trkpt lat="45.62593" lon="6.65695">
        <ele>2357.29</ele>
        <time>2018-02-06T14:07:46Z</time>
      </trkpt>
      <trkpt lat="45.62594" lon="6.65684">
        <ele>2357.77</ele>
        <time>2018-02-06T14:08:00Z</time>
      </trkpt>
      <trkpt lat="45.62596" lon="6.65674">
        <ele>2360.17</ele>
        <time>2018-02-06T14:08:13Z</time>
      </trkpt>
      <trkpt lat="45.62604" lon="6.65671">
        <ele>2361.62</ele>
        <time>2018-02-06T14:08:27Z</time>
      </trkpt>
      <trkpt lat="45.6261" lon="6.65673">
        <ele>2363.06</ele>
        <time>2018-02-06T14:08:40Z</time>
      </trkpt>
      <trkpt lat="45.62617" lon="6.65675">
        <ele>2364.98</ele>
        <time>2018-02-06T14:08:53Z</time>
      </trkpt>
      <trkpt lat="45.62621" lon="6.65672">
        <ele>2365.94</ele>
        <time>2018-02-06T14:09:07Z</time>
      </trkpt>
      <trkpt lat="45.62619" lon="6.65662">
        <ele>2368.35</ele>
        <time>2018-02-06T14:09:20Z</time>
      </trkpt>
      <trkpt lat="45.62621" lon="6.65655">
        <ele>2371.23</ele>
        <time>2018-02-06T14:09:34Z</time>
      </trkpt>
      <trkpt lat="45.62627" lon="6.65658">
        <ele>2373.15</ele>
        <time>2018-02-06T14:09:46Z</time>
      </trkpt>
      <trkpt lat="45.62634" lon="6.65659">
        <ele>2374.11</ele>
        <time>2018-02-06T14:09:59Z</time>
      </trkpt>
      <trkpt lat="45.62634" lon="6.65653">
        <ele>2376.52</ele>
        <time>2018-02-06T14:10:11Z</time>
      </trkpt>
      <trkpt lat="45.62631" lon="6.65645">
        <ele>2377.48</ele>
        <time>2018-02-06T14:10:23Z</time>
      </trkpt>
      <trkpt lat="45.62633" lon="6.65641">
        <ele>2378.44</ele>
        <time>2018-02-06T14:10:35Z</time>
      </trkpt>
      <trkpt lat="45.62642" lon="6.65644">
        <ele>2380.36</ele>
        <time>2018-02-06T14:10:50Z</time>
      </trkpt>
      <trkpt lat="45.62642" lon="6.65639">
        <ele>2381.8</ele>
        <time>2018-02-06T14:11:02Z</time>
      </trkpt>
      <trkpt lat="45.62639" lon="6.65631">
        <ele>2383.73</ele>
        <time>2018-02-06T14:11:16Z</time>
      </trkpt>
      <trkpt lat="45.62637" lon="6.65623">
        <ele>2385.65</ele>
        <time>2018-02-06T14:11:31Z</time>
      </trkpt>
      <trkpt lat="45.62638" lon="6.65618">
        <ele>2387.09</ele>
        <time>2018-02-06T14:11:42Z</time>
      </trkpt>
      <trkpt lat="45.62645" lon="6.65617">
        <ele>2389.01</ele>
        <time>2018-02-06T14:11:56Z</time>
      </trkpt>
      <trkpt lat="45.62653" lon="6.6562">
        <ele>2390.46</ele>
        <time>2018-02-06T14:12:10Z</time>
      </trkpt>
      <trkpt lat="45.62659" lon="6.65624">
        <ele>2391.9</ele>
        <time>2018-02-06T14:12:22Z</time>
      </trkpt>
      <trkpt lat="45.62666" lon="6.6563">
        <ele>2394.3</ele>
        <time>2018-02-06T14:12:40Z</time>
      </trkpt>
      <trkpt lat="45.62671" lon="6.65636">
        <ele>2396.22</ele>
        <time>2018-02-06T14:12:55Z</time>
      </trkpt>
      <trkpt lat="45.62677" lon="6.6564">
        <ele>2398.15</ele>
        <time>2018-02-06T14:13:09Z</time>
      </trkpt>
      <trkpt lat="45.62682" lon="6.6564">
        <ele>2399.11</ele>
        <time>2018-02-06T14:13:22Z</time>
      </trkpt>
      <trkpt lat="45.62681" lon="6.65634">
        <ele>2401.03</ele>
        <time>2018-02-06T14:13:33Z</time>
      </trkpt>
      <trkpt lat="45.62683" lon="6.65628">
        <ele>2402.95</ele>
        <time>2018-02-06T14:13:46Z</time>
      </trkpt>
      <trkpt lat="45.62687" lon="6.65623">
        <ele>2404.88</ele>
        <time>2018-02-06T14:13:59Z</time>
      </trkpt>
      <trkpt lat="45.6269" lon="6.65618">
        <ele>2406.8</ele>
        <time>2018-02-06T14:14:11Z</time>
      </trkpt>
      <trkpt lat="45.62694" lon="6.65614">
        <ele>2408.24</ele>
        <time>2018-02-06T14:14:24Z</time>
      </trkpt>
      <trkpt lat="45.62697" lon="6.6561">
        <ele>2409.68</ele>
        <time>2018-02-06T14:14:36Z</time>
      </trkpt>
      <trkpt lat="45.62702" lon="6.65607">
        <ele>2411.12</ele>
        <time>2018-02-06T14:14:48Z</time>
      </trkpt>
      <trkpt lat="45.62708" lon="6.65605">
        <ele>2412.57</ele>
        <time>2018-02-06T14:15:00Z</time>
      </trkpt>
      <trkpt lat="45.62714" lon="6.65603">
        <ele>2414.01</ele>
        <time>2018-02-06T14:15:13Z</time>
      </trkpt>
      <trkpt lat="45.6272" lon="6.65597">
        <ele>2415.45</ele>
        <time>2018-02-06T14:15:28Z</time>
      </trkpt>
      <trkpt lat="45.62724" lon="6.65593">
        <ele>2417.37</ele>
        <time>2018-02-06T14:15:41Z</time>
      </trkpt>
      <trkpt lat="45.62725" lon="6.65604">
        <ele>2419.78</ele>
        <time>2018-02-06T14:15:57Z</time>
      </trkpt>
      <trkpt lat="45.62729" lon="6.65612">
        <ele>2421.22</ele>
        <time>2018-02-06T14:16:11Z</time>
      </trkpt>
      <trkpt lat="45.62733" lon="6.65622">
        <ele>2423.14</ele>
        <time>2018-02-06T14:16:26Z</time>
      </trkpt>
      <trkpt lat="45.62735" lon="6.65632">
        <ele>2423.62</ele>
        <time>2018-02-06T14:16:37Z</time>
      </trkpt>
      <trkpt lat="45.62737" lon="6.65644">
        <ele>2424.58</ele>
        <time>2018-02-06T14:16:52Z</time>
      </trkpt>
      <trkpt lat="45.62739" lon="6.6565">
        <ele>2424.58</ele>
        <time>2018-02-06T14:17:00Z</time>
      </trkpt>
      <trkpt lat="45.6274" lon="6.65659">
        <ele>2423.62</ele>
        <time>2018-02-06T14:17:05Z</time>
      </trkpt>
      <trkpt lat="45.62741" lon="6.65669">
        <ele>2422.66</ele>
        <time>2018-02-06T14:17:09Z</time>
      </trkpt>
      <trkpt lat="45.62741" lon="6.65689">
        <ele>2420.74</ele>
        <time>2018-02-06T14:17:22Z</time>
      </trkpt>
      <trkpt lat="45.62741" lon="6.65708">
        <ele>2421.7</ele>
        <time>2018-02-06T14:17:39Z</time>
      </trkpt>
      <trkpt lat="45.6274" lon="6.65722">
        <ele>2422.66</ele>
        <time>2018-02-06T14:17:54Z</time>
      </trkpt>
      <trkpt lat="45.62738" lon="6.65734">
        <ele>2424.1</ele>
        <time>2018-02-06T14:18:10Z</time>
      </trkpt>
      <trkpt lat="45.62735" lon="6.6575">
        <ele>2426.99</ele>
        <time>2018-02-06T14:18:29Z</time>
      </trkpt>
      <trkpt lat="45.62732" lon="6.65764">
        <ele>2427.47</ele>
        <time>2018-02-06T14:18:44Z</time>
      </trkpt>
      <trkpt lat="45.62728" lon="6.6578">
        <ele>2428.91</ele>
        <time>2018-02-06T14:19:02Z</time>
      </trkpt>
      <trkpt lat="45.62726" lon="6.65788">
        <ele>2429.39</ele>
        <time>2018-02-06T14:19:11Z</time>
      </trkpt>
      <trkpt lat="45.62726" lon="6.6579">
        <ele>2427.95</ele>
        <time>2018-02-06T14:19:13Z</time>
      </trkpt>
      <trkpt lat="45.62727" lon="6.65794">
        <ele>2431.79</ele>
        <time>2018-02-06T14:19:18Z</time>
      </trkpt>
      <trkpt lat="45.62727" lon="6.65795">
        <ele>2431.79</ele>
        <time>2018-02-06T14:19:19Z</time>
      </trkpt>
      <trkpt lat="45.6273" lon="6.65797">
        <ele>2428.43</ele>
        <time>2018-02-06T14:19:36Z</time>
      </trkpt>
      <trkpt lat="45.6273" lon="6.65795">
        <ele>2429.87</ele>
        <time>2018-02-06T14:19:54Z</time>
      </trkpt>
      <trkpt lat="45.6273" lon="6.65795">
        <ele>2427.95</ele>
        <time>2018-02-06T14:19:56Z</time>
      </trkpt>
      <trkpt lat="45.62731" lon="6.65796">
        <ele>2431.79</ele>
        <time>2018-02-06T14:19:58Z</time>
      </trkpt>
      <trkpt lat="45.6273" lon="6.65796">
        <ele>2431.79</ele>
        <time>2018-02-06T14:19:59Z</time>
      </trkpt>
      <trkpt lat="45.6273" lon="6.65798">
        <ele>2428.43</ele>
        <time>2018-02-06T14:20:03Z</time>
      </trkpt>
      <trkpt lat="45.62728" lon="6.65799">
        <ele>2431.31</ele>
        <time>2018-02-06T14:20:07Z</time>
      </trkpt>
      <trkpt lat="45.62728" lon="6.65799">
        <ele>2431.31</ele>
        <time>2018-02-06T14:20:08Z</time>
      </trkpt>
      <trkpt lat="45.62725" lon="6.65798">
        <ele>2431.79</ele>
        <time>2018-02-06T14:20:12Z</time>
      </trkpt>
      <trkpt lat="45.62723" lon="6.65798">
        <ele>2432.75</ele>
        <time>2018-02-06T14:20:19Z</time>
      </trkpt>
      <trkpt lat="45.62715" lon="6.658">
        <ele>2430.35</ele>
        <time>2018-02-06T14:20:30Z</time>
      </trkpt>
      <trkpt lat="45.62714" lon="6.658">
        <ele>2430.83</ele>
        <time>2018-02-06T14:20:32Z</time>
      </trkpt>
      <trkpt lat="45.62705" lon="6.658">
        <ele>2430.83</ele>
        <time>2018-02-06T14:20:47Z</time>
      </trkpt>
      <trkpt lat="45.62697" lon="6.65801">
        <ele>2432.75</ele>
        <time>2018-02-06T14:21:00Z</time>
      </trkpt>
      <trkpt lat="45.62698" lon="6.65808">
        <ele>2434.2</ele>
        <time>2018-02-06T14:21:11Z</time>
      </trkpt>
      <trkpt lat="45.62699" lon="6.65817">
        <ele>2436.12</ele>
        <time>2018-02-06T14:21:25Z</time>
      </trkpt>
      <trkpt lat="45.62698" lon="6.65817">
        <ele>2434.68</ele>
        <time>2018-02-06T14:21:46Z</time>
      </trkpt>
      <trkpt lat="45.62696" lon="6.65832">
        <ele>2435.16</ele>
        <time>2018-02-06T14:22:02Z</time>
      </trkpt>
      <trkpt lat="45.62698" lon="6.65845">
        <ele>2435.16</ele>
        <time>2018-02-06T14:22:16Z</time>
      </trkpt>
      <trkpt lat="45.62699" lon="6.65848">
        <ele>2433.23</ele>
        <time>2018-02-06T14:22:31Z</time>
      </trkpt>
      <trkpt lat="45.62699" lon="6.65847">
        <ele>2436.12</ele>
        <time>2018-02-06T14:22:41Z</time>
      </trkpt>
      <trkpt lat="45.62702" lon="6.65842">
        <ele>2437.08</ele>
        <time>2018-02-06T14:22:59Z</time>
      </trkpt>
      <trkpt lat="45.62704" lon="6.65842">
        <ele>2435.16</ele>
        <time>2018-02-06T14:23:11Z</time>
      </trkpt>
      <trkpt lat="45.62705" lon="6.6584">
        <ele>2434.68</ele>
        <time>2018-02-06T14:23:37Z</time>
      </trkpt>
      <trkpt lat="45.62707" lon="6.65838">
        <ele>2434.68</ele>
        <time>2018-02-06T14:23:52Z</time>
      </trkpt>
      <trkpt lat="45.62707" lon="6.65835">
        <ele>2434.68</ele>
        <time>2018-02-06T14:24:08Z</time>
      </trkpt>
      <trkpt lat="45.62704" lon="6.65827">
        <ele>2434.68</ele>
        <time>2018-02-06T14:24:25Z</time>
      </trkpt>
      <trkpt lat="45.62703" lon="6.65826">
        <ele>2434.68</ele>
        <time>2018-02-06T14:24:46Z</time>
      </trkpt>
      <trkpt lat="45.62703" lon="6.65826">
        <ele>2434.68</ele>
        <time>2018-02-06T14:25:09Z</time>
      </trkpt>
      <trkpt lat="45.62703" lon="6.65829">
        <ele>2434.2</ele>
        <time>2018-02-06T14:25:26Z</time>
      </trkpt>
      <trkpt lat="45.62704" lon="6.6583">
        <ele>2433.71</ele>
        <time>2018-02-06T14:25:51Z</time>
      </trkpt>
      <trkpt lat="45.62705" lon="6.65832">
        <ele>2433.23</ele>
        <time>2018-02-06T14:26:14Z</time>
      </trkpt>
      <trkpt lat="45.62705" lon="6.6583">
        <ele>2433.23</ele>
        <time>2018-02-06T14:26:52Z</time>
      </trkpt>
      <trkpt lat="45.62702" lon="6.65829">
        <ele>2434.2</ele>
        <time>2018-02-06T14:27:22Z</time>
      </trkpt>
      <trkpt lat="45.62701" lon="6.65828">
        <ele>2433.71</ele>
        <time>2018-02-06T14:27:52Z</time>
      </trkpt>
      <trkpt lat="45.62702" lon="6.65831">
        <ele>2433.71</ele>
        <time>2018-02-06T14:28:32Z</time>
      </trkpt>
      <trkpt lat="45.627" lon="6.65831">
        <ele>2433.71</ele>
        <time>2018-02-06T14:29:04Z</time>
      </trkpt>
      <trkpt lat="45.62702" lon="6.65833">
        <ele>2433.23</ele>
        <time>2018-02-06T14:29:31Z</time>
      </trkpt>
      <trkpt lat="45.62699" lon="6.65833">
        <ele>2433.23</ele>
        <time>2018-02-06T14:29:52Z</time>
      </trkpt>
      <trkpt lat="45.62699" lon="6.65829">
        <ele>2433.23</ele>
        <time>2018-02-06T14:30:20Z</time>
      </trkpt>
      <trkpt lat="45.627" lon="6.65829">
        <ele>2433.23</ele>
        <time>2018-02-06T14:30:47Z</time>
      </trkpt>
      <trkpt lat="45.62701" lon="6.65831">
        <ele>2433.71</ele>
        <time>2018-02-06T14:31:10Z</time>
      </trkpt>
      <trkpt lat="45.62703" lon="6.65832">
        <ele>2433.71</ele>
        <time>2018-02-06T14:31:30Z</time>
      </trkpt>
      <trkpt lat="45.62701" lon="6.6583">
        <ele>2433.71</ele>
        <time>2018-02-06T14:31:54Z</time>
      </trkpt>
      <trkpt lat="45.62697" lon="6.6583">
        <ele>2434.2</ele>
        <time>2018-02-06T14:32:16Z</time>
      </trkpt>
      <trkpt lat="45.627" lon="6.65828">
        <ele>2433.71</ele>
        <time>2018-02-06T14:32:34Z</time>
      </trkpt>
      <trkpt lat="45.62703" lon="6.65828">
        <ele>2435.16</ele>
        <time>2018-02-06T14:32:48Z</time>
      </trkpt>
      <trkpt lat="45.62703" lon="6.65828">
        <ele>2435.16</ele>
        <time>2018-02-06T14:33:03Z</time>
      </trkpt>
      <trkpt lat="45.62704" lon="6.65829">
        <ele>2435.16</ele>
        <time>2018-02-06T14:33:28Z</time>
      </trkpt>
      <trkpt lat="45.62703" lon="6.65829">
        <ele>2436.12</ele>
        <time>2018-02-06T14:33:48Z</time>
      </trkpt>
      <trkpt lat="45.62703" lon="6.65828">
        <ele>2435.64</ele>
        <time>2018-02-06T14:34:06Z</time>
      </trkpt>
      <trkpt lat="45.62703" lon="6.65827">
        <ele>2435.64</ele>
        <time>2018-02-06T14:34:17Z</time>
      </trkpt>
      <trkpt lat="45.62705" lon="6.65812">
        <ele>2432.75</ele>
        <time>2018-02-06T14:34:24Z</time>
      </trkpt>
      <trkpt lat="45.62717" lon="6.65808">
        <ele>2428.43</ele>
        <time>2018-02-06T14:34:32Z</time>
      </trkpt>
      <trkpt lat="45.6272" lon="6.6583">
        <ele>2426.02</ele>
        <time>2018-02-06T14:34:46Z</time>
      </trkpt>
      <trkpt lat="45.62722" lon="6.65838">
        <ele>2425.54</ele>
        <time>2018-02-06T14:35:02Z</time>
      </trkpt>
      <trkpt lat="45.62723" lon="6.6584">
        <ele>2425.06</ele>
        <time>2018-02-06T14:35:20Z</time>
      </trkpt>
      <trkpt lat="45.62724" lon="6.65848">
        <ele>2424.1</ele>
        <time>2018-02-06T14:35:25Z</time>
      </trkpt>
      <trkpt lat="45.62729" lon="6.65847">
        <ele>2421.7</ele>
        <time>2018-02-06T14:35:29Z</time>
      </trkpt>
      <trkpt lat="45.62733" lon="6.65842">
        <ele>2420.26</ele>
        <time>2018-02-06T14:35:38Z</time>
      </trkpt>
      <trkpt lat="45.62734" lon="6.65841">
        <ele>2419.78</ele>
        <time>2018-02-06T14:36:03Z</time>
      </trkpt>
      <trkpt lat="45.62733" lon="6.65842">
        <ele>2419.78</ele>
        <time>2018-02-06T14:36:19Z</time>
      </trkpt>
      <trkpt lat="45.62733" lon="6.6585">
        <ele>2418.81</ele>
        <time>2018-02-06T14:36:23Z</time>
      </trkpt>
      <trkpt lat="45.62733" lon="6.65851">
        <ele>2418.33</ele>
        <time>2018-02-06T14:36:27Z</time>
      </trkpt>
      <trkpt lat="45.62741" lon="6.65849">
        <ele>2416.89</ele>
        <time>2018-02-06T14:36:31Z</time>
      </trkpt>
      <trkpt lat="45.62742" lon="6.65849">
        <ele>2416.89</ele>
        <time>2018-02-06T14:36:32Z</time>
      </trkpt>
      <trkpt lat="45.62743" lon="6.6585">
        <ele>2415.45</ele>
        <time>2018-02-06T14:36:45Z</time>
      </trkpt>
      <trkpt lat="45.62745" lon="6.65852">
        <ele>2414.01</ele>
        <time>2018-02-06T14:36:59Z</time>
      </trkpt>
      <trkpt lat="45.62745" lon="6.65853">
        <ele>2413.53</ele>
        <time>2018-02-06T14:37:20Z</time>
      </trkpt>
      <trkpt lat="45.62744" lon="6.65852">
        <ele>2414.01</ele>
        <time>2018-02-06T14:37:40Z</time>
      </trkpt>
      <trkpt lat="45.62743" lon="6.6585">
        <ele>2414.01</ele>
        <time>2018-02-06T14:38:00Z</time>
      </trkpt>
      <trkpt lat="45.62744" lon="6.65852">
        <ele>2414.01</ele>
        <time>2018-02-06T14:38:19Z</time>
      </trkpt>
      <trkpt lat="45.62745" lon="6.65851">
        <ele>2414.97</ele>
        <time>2018-02-06T14:38:44Z</time>
      </trkpt>
      <trkpt lat="45.62744" lon="6.65852">
        <ele>2416.89</ele>
        <time>2018-02-06T14:39:02Z</time>
      </trkpt>
      <trkpt lat="45.62744" lon="6.65851">
        <ele>2415.45</ele>
        <time>2018-02-06T14:39:05Z</time>
      </trkpt>
      <trkpt lat="45.62743" lon="6.6585">
        <ele>2416.41</ele>
        <time>2018-02-06T14:39:21Z</time>
      </trkpt>
      <trkpt lat="45.62742" lon="6.65852">
        <ele>2415.93</ele>
        <time>2018-02-06T14:39:35Z</time>
      </trkpt>
      <trkpt lat="45.62741" lon="6.65852">
        <ele>2417.85</ele>
        <time>2018-02-06T14:39:47Z</time>
      </trkpt>
      <trkpt lat="45.6274" lon="6.65852">
        <ele>2417.37</ele>
        <time>2018-02-06T14:40:03Z</time>
      </trkpt>
      <trkpt lat="45.62739" lon="6.6585">
        <ele>2418.81</ele>
        <time>2018-02-06T14:40:21Z</time>
      </trkpt>
      <trkpt lat="45.62738" lon="6.65849">
        <ele>2418.81</ele>
        <time>2018-02-06T14:40:35Z</time>
      </trkpt>
      <trkpt lat="45.62735" lon="6.65849">
        <ele>2420.26</ele>
        <time>2018-02-06T14:40:50Z</time>
      </trkpt>
      <trkpt lat="45.62734" lon="6.65847">
        <ele>2420.26</ele>
        <time>2018-02-06T14:41:04Z</time>
      </trkpt>
      <trkpt lat="45.62733" lon="6.65846">
        <ele>2420.26</ele>
        <time>2018-02-06T14:41:18Z</time>
      </trkpt>
      <trkpt lat="45.62733" lon="6.65845">
        <ele>2420.74</ele>
        <time>2018-02-06T14:41:31Z</time>
      </trkpt>
      <trkpt lat="45.62733" lon="6.65843">
        <ele>2421.22</ele>
        <time>2018-02-06T14:41:44Z</time>
      </trkpt>
      <trkpt lat="45.62732" lon="6.65841">
        <ele>2422.18</ele>
        <time>2018-02-06T14:41:56Z</time>
      </trkpt>
      <trkpt lat="45.62732" lon="6.6584">
        <ele>2421.22</ele>
        <time>2018-02-06T14:42:10Z</time>
      </trkpt>
      <trkpt lat="45.62732" lon="6.65839">
        <ele>2420.74</ele>
        <time>2018-02-06T14:42:23Z</time>
      </trkpt>
      <trkpt lat="45.62733" lon="6.65838">
        <ele>2421.7</ele>
        <time>2018-02-06T14:42:38Z</time>
      </trkpt>
      <trkpt lat="45.62731" lon="6.65836">
        <ele>2422.66</ele>
        <time>2018-02-06T14:42:48Z</time>
      </trkpt>
      <trkpt lat="45.6273" lon="6.65835">
        <ele>2422.66</ele>
        <time>2018-02-06T14:42:58Z</time>
      </trkpt>
      <trkpt lat="45.6273" lon="6.65834">
        <ele>2423.62</ele>
        <time>2018-02-06T14:43:08Z</time>
      </trkpt>
      <trkpt lat="45.62729" lon="6.65831">
        <ele>2422.66</ele>
        <time>2018-02-06T14:43:21Z</time>
      </trkpt>
      <trkpt lat="45.6273" lon="6.6583">
        <ele>2423.14</ele>
        <time>2018-02-06T14:43:31Z</time>
      </trkpt>
      <trkpt lat="45.62729" lon="6.65829">
        <ele>2424.1</ele>
        <time>2018-02-06T14:43:42Z</time>
      </trkpt>
      <trkpt lat="45.62726" lon="6.65828">
        <ele>2424.58</ele>
        <time>2018-02-06T14:43:56Z</time>
      </trkpt>
      <trkpt lat="45.62726" lon="6.65827">
        <ele>2425.54</ele>
        <time>2018-02-06T14:44:10Z</time>
      </trkpt>
      <trkpt lat="45.62725" lon="6.65825">
        <ele>2425.54</ele>
        <time>2018-02-06T14:44:24Z</time>
      </trkpt>
      <trkpt lat="45.62724" lon="6.65824">
        <ele>2426.02</ele>
        <time>2018-02-06T14:44:37Z</time>
      </trkpt>
      <trkpt lat="45.62724" lon="6.65822">
        <ele>2426.5</ele>
        <time>2018-02-06T14:44:48Z</time>
      </trkpt>
      <trkpt lat="45.62725" lon="6.6582">
        <ele>2426.99</ele>
        <time>2018-02-06T14:44:58Z</time>
      </trkpt>
      <trkpt lat="45.62724" lon="6.65818">
        <ele>2426.99</ele>
        <time>2018-02-06T14:45:09Z</time>
      </trkpt>
      <trkpt lat="45.62723" lon="6.65816">
        <ele>2426.99</ele>
        <time>2018-02-06T14:45:18Z</time>
      </trkpt>
      <trkpt lat="45.62725" lon="6.65813">
        <ele>2427.95</ele>
        <time>2018-02-06T14:45:31Z</time>
      </trkpt>
      <trkpt lat="45.62724" lon="6.65811">
        <ele>2427.47</ele>
        <time>2018-02-06T14:45:42Z</time>
      </trkpt>
      <trkpt lat="45.62723" lon="6.65809">
        <ele>2427.95</ele>
        <time>2018-02-06T14:45:54Z</time>
      </trkpt>
      <trkpt lat="45.62721" lon="6.65806">
        <ele>2428.43</ele>
        <time>2018-02-06T14:46:05Z</time>
      </trkpt>
      <trkpt lat="45.62721" lon="6.65805">
        <ele>2428.91</ele>
        <time>2018-02-06T14:46:14Z</time>
      </trkpt>
      <trkpt lat="45.6272" lon="6.65804">
        <ele>2429.39</ele>
        <time>2018-02-06T14:46:30Z</time>
      </trkpt>
      <trkpt lat="45.62719" lon="6.65802">
        <ele>2429.87</ele>
        <time>2018-02-06T14:46:40Z</time>
      </trkpt>
      <trkpt lat="45.6272" lon="6.65799">
        <ele>2430.83</ele>
        <time>2018-02-06T14:46:50Z</time>
      </trkpt>
      <trkpt lat="45.62722" lon="6.65799">
        <ele>2430.35</ele>
        <time>2018-02-06T14:47:02Z</time>
      </trkpt>
      <trkpt lat="45.62723" lon="6.65798">
        <ele>2429.87</ele>
        <time>2018-02-06T14:47:26Z</time>
      </trkpt>
      <trkpt lat="45.62725" lon="6.65794">
        <ele>2429.87</ele>
        <time>2018-02-06T14:47:39Z</time>
      </trkpt>
      <trkpt lat="45.62726" lon="6.65789">
        <ele>2430.35</ele>
        <time>2018-02-06T14:47:50Z</time>
      </trkpt>
      <trkpt lat="45.62725" lon="6.65789">
        <ele>2430.35</ele>
        <time>2018-02-06T14:48:03Z</time>
      </trkpt>
      <trkpt lat="45.62727" lon="6.65788">
        <ele>2430.35</ele>
        <time>2018-02-06T14:48:23Z</time>
      </trkpt>
      <trkpt lat="45.62726" lon="6.65788">
        <ele>2430.83</ele>
        <time>2018-02-06T14:48:46Z</time>
      </trkpt>
      <trkpt lat="45.62727" lon="6.65786">
        <ele>2430.35</ele>
        <time>2018-02-06T14:49:11Z</time>
      </trkpt>
      <trkpt lat="45.62727" lon="6.65786">
        <ele>2430.35</ele>
        <time>2018-02-06T14:49:45Z</time>
      </trkpt>
      <trkpt lat="45.62726" lon="6.65786">
        <ele>2429.87</ele>
        <time>2018-02-06T14:50:04Z</time>
      </trkpt>
      <trkpt lat="45.62727" lon="6.65785">
        <ele>2430.35</ele>
        <time>2018-02-06T14:50:33Z</time>
      </trkpt>
      <trkpt lat="45.62726" lon="6.65785">
        <ele>2429.87</ele>
        <time>2018-02-06T14:51:03Z</time>
      </trkpt>
      <trkpt lat="45.62726" lon="6.65786">
        <ele>2429.87</ele>
        <time>2018-02-06T14:51:24Z</time>
      </trkpt>
      <trkpt lat="45.62727" lon="6.65785">
        <ele>2429.39</ele>
        <time>2018-02-06T14:51:49Z</time>
      </trkpt>
      <trkpt lat="45.62727" lon="6.65784">
        <ele>2430.35</ele>
        <time>2018-02-06T14:52:06Z</time>
      </trkpt>
      <trkpt lat="45.62727" lon="6.65786">
        <ele>2430.35</ele>
        <time>2018-02-06T14:52:47Z</time>
      </trkpt>
      <trkpt lat="45.62729" lon="6.65787">
        <ele>2430.35</ele>
        <time>2018-02-06T14:53:15Z</time>
      </trkpt>
      <trkpt lat="45.62729" lon="6.65787">
        <ele>2430.35</ele>
        <time>2018-02-06T14:53:56Z</time>
      </trkpt>
      <trkpt lat="45.62729" lon="6.65786">
        <ele>2429.87</ele>
        <time>2018-02-06T14:54:25Z</time>
      </trkpt>
      <trkpt lat="45.62729" lon="6.65784">
        <ele>2429.87</ele>
        <time>2018-02-06T14:54:47Z</time>
      </trkpt>
      <trkpt lat="45.6273" lon="6.65777">
        <ele>2430.35</ele>
        <time>2018-02-06T14:54:51Z</time>
      </trkpt>
      <trkpt lat="45.62739" lon="6.65735">
        <ele>2426.5</ele>
        <time>2018-02-06T14:55:06Z</time>
      </trkpt>
      <trkpt lat="45.62746" lon="6.65704">
        <ele>2423.62</ele>
        <time>2018-02-06T14:55:10Z</time>
      </trkpt>
      <trkpt lat="45.62748" lon="6.65693">
        <ele>2421.7</ele>
        <time>2018-02-06T14:55:12Z</time>
      </trkpt>
      <trkpt lat="45.62756" lon="6.65678">
        <ele>2421.22</ele>
        <time>2018-02-06T14:55:20Z</time>
      </trkpt>
      <trkpt lat="45.62765" lon="6.65679">
        <ele>2419.78</ele>
        <time>2018-02-06T14:55:23Z</time>
      </trkpt>
      <trkpt lat="45.62766" lon="6.65673">
        <ele>2418.33</ele>
        <time>2018-02-06T14:55:25Z</time>
      </trkpt>
      <trkpt lat="45.62773" lon="6.65669">
        <ele>2414.49</ele>
        <time>2018-02-06T14:55:29Z</time>
      </trkpt>
      <trkpt lat="45.62774" lon="6.65674">
        <ele>2414.01</ele>
        <time>2018-02-06T14:55:30Z</time>
      </trkpt>
      <trkpt lat="45.62779" lon="6.65673">
        <ele>2412.09</ele>
        <time>2018-02-06T14:55:33Z</time>
      </trkpt>
      <trkpt lat="45.6278" lon="6.6567">
        <ele>2409.2</ele>
        <time>2018-02-06T14:55:36Z</time>
      </trkpt>
      <trkpt lat="45.62781" lon="6.65666">
        <ele>2408.72</ele>
        <time>2018-02-06T14:55:38Z</time>
      </trkpt>
      <trkpt lat="45.62791" lon="6.65669">
        <ele>2403.91</ele>
        <time>2018-02-06T14:55:42Z</time>
      </trkpt>
      <trkpt lat="45.62791" lon="6.65663">
        <ele>2402.47</ele>
        <time>2018-02-06T14:55:49Z</time>
      </trkpt>
      <trkpt lat="45.62799" lon="6.65667">
        <ele>2398.15</ele>
        <time>2018-02-06T14:55:52Z</time>
      </trkpt>
      <trkpt lat="45.62799" lon="6.65672">
        <ele>2398.15</ele>
        <time>2018-02-06T14:55:53Z</time>
      </trkpt>
      <trkpt lat="45.62801" lon="6.65676">
        <ele>2397.67</ele>
        <time>2018-02-06T14:55:56Z</time>
      </trkpt>
      <trkpt lat="45.6281" lon="6.65673">
        <ele>2393.82</ele>
        <time>2018-02-06T14:55:59Z</time>
      </trkpt>
      <trkpt lat="45.62813" lon="6.65668">
        <ele>2392.38</ele>
        <time>2018-02-06T14:56:01Z</time>
      </trkpt>
      <trkpt lat="45.62812" lon="6.65667">
        <ele>2392.86</ele>
        <time>2018-02-06T14:56:13Z</time>
      </trkpt>
      <trkpt lat="45.62814" lon="6.65667">
        <ele>2391.9</ele>
        <time>2018-02-06T14:56:16Z</time>
      </trkpt>
      <trkpt lat="45.62819" lon="6.65684">
        <ele>2388.53</ele>
        <time>2018-02-06T14:56:23Z</time>
      </trkpt>
      <trkpt lat="45.62827" lon="6.65676">
        <ele>2386.13</ele>
        <time>2018-02-06T14:56:28Z</time>
      </trkpt>
      <trkpt lat="45.6283" lon="6.65672">
        <ele>2384.21</ele>
        <time>2018-02-06T14:56:31Z</time>
      </trkpt>
      <trkpt lat="45.6283" lon="6.65672">
        <ele>2383.73</ele>
        <time>2018-02-06T14:56:32Z</time>
      </trkpt>
      <trkpt lat="45.62836" lon="6.6568">
        <ele>2379.88</ele>
        <time>2018-02-06T14:56:36Z</time>
      </trkpt>
      <trkpt lat="45.62836" lon="6.65682">
        <ele>2379.4</ele>
        <time>2018-02-06T14:56:37Z</time>
      </trkpt>
      <trkpt lat="45.62836" lon="6.65686">
        <ele>2378.92</ele>
        <time>2018-02-06T14:56:38Z</time>
      </trkpt>
      <trkpt lat="45.62841" lon="6.65684">
        <ele>2376.04</ele>
        <time>2018-02-06T14:56:42Z</time>
      </trkpt>
      <trkpt lat="45.62842" lon="6.65683">
        <ele>2375.55</ele>
        <time>2018-02-06T14:56:44Z</time>
      </trkpt>
      <trkpt lat="45.62849" lon="6.65695">
        <ele>2372.19</ele>
        <time>2018-02-06T14:56:49Z</time>
      </trkpt>
      <trkpt lat="45.62849" lon="6.65698">
        <ele>2372.19</ele>
        <time>2018-02-06T14:56:50Z</time>
      </trkpt>
      <trkpt lat="45.62855" lon="6.65697">
        <ele>2369.31</ele>
        <time>2018-02-06T14:56:55Z</time>
      </trkpt>
      <trkpt lat="45.62856" lon="6.65695">
        <ele>2368.83</ele>
        <time>2018-02-06T14:56:57Z</time>
      </trkpt>
      <trkpt lat="45.62867" lon="6.65706">
        <ele>2365.46</ele>
        <time>2018-02-06T14:57:02Z</time>
      </trkpt>
      <trkpt lat="45.62871" lon="6.65715">
        <ele>2363.54</ele>
        <time>2018-02-06T14:57:04Z</time>
      </trkpt>
      <trkpt lat="45.62879" lon="6.6571">
        <ele>2360.17</ele>
        <time>2018-02-06T14:57:07Z</time>
      </trkpt>
      <trkpt lat="45.62881" lon="6.65707">
        <ele>2359.69</ele>
        <time>2018-02-06T14:57:09Z</time>
      </trkpt>
      <trkpt lat="45.62881" lon="6.65706">
        <ele>2359.69</ele>
        <time>2018-02-06T14:57:20Z</time>
      </trkpt>
      <trkpt lat="45.6288" lon="6.65721">
        <ele>2357.77</ele>
        <time>2018-02-06T14:57:25Z</time>
      </trkpt>
      <trkpt lat="45.62898" lon="6.65725">
        <ele>2354.41</ele>
        <time>2018-02-06T14:57:30Z</time>
      </trkpt>
      <trkpt lat="45.62902" lon="6.65723">
        <ele>2352</ele>
        <time>2018-02-06T14:57:33Z</time>
      </trkpt>
      <trkpt lat="45.62903" lon="6.65723">
        <ele>2351.52</ele>
        <time>2018-02-06T14:57:36Z</time>
      </trkpt>
      <trkpt lat="45.62908" lon="6.65733">
        <ele>2349.12</ele>
        <time>2018-02-06T14:57:41Z</time>
      </trkpt>
      <trkpt lat="45.62906" lon="6.65744">
        <ele>2346.23</ele>
        <time>2018-02-06T14:57:44Z</time>
      </trkpt>
      <trkpt lat="45.62914" lon="6.65746">
        <ele>2344.31</ele>
        <time>2018-02-06T14:57:51Z</time>
      </trkpt>
      <trkpt lat="45.62918" lon="6.65749">
        <ele>2344.31</ele>
        <time>2018-02-06T14:57:53Z</time>
      </trkpt>
      <trkpt lat="45.62919" lon="6.65765">
        <ele>2338.54</ele>
        <time>2018-02-06T14:57:56Z</time>
      </trkpt>
      <trkpt lat="45.62922" lon="6.65773">
        <ele>2336.62</ele>
        <time>2018-02-06T14:57:58Z</time>
      </trkpt>
      <trkpt lat="45.62929" lon="6.65783">
        <ele>2334.22</ele>
        <time>2018-02-06T14:58:08Z</time>
      </trkpt>
      <trkpt lat="45.6293" lon="6.65783">
        <ele>2334.22</ele>
        <time>2018-02-06T14:58:29Z</time>
      </trkpt>
      <trkpt lat="45.62931" lon="6.65797">
        <ele>2334.22</ele>
        <time>2018-02-06T14:58:44Z</time>
      </trkpt>
      <trkpt lat="45.62932" lon="6.65824">
        <ele>2330.85</ele>
        <time>2018-02-06T14:58:54Z</time>
      </trkpt>
      <trkpt lat="45.6293" lon="6.65828">
        <ele>2329.89</ele>
        <time>2018-02-06T14:58:55Z</time>
      </trkpt>
      <trkpt lat="45.62923" lon="6.65845">
        <ele>2326.05</ele>
        <time>2018-02-06T14:59:03Z</time>
      </trkpt>
      <trkpt lat="45.62917" lon="6.65851">
        <ele>2321.24</ele>
        <time>2018-02-06T14:59:06Z</time>
      </trkpt>
      <trkpt lat="45.62915" lon="6.65853">
        <ele>2320.28</ele>
        <time>2018-02-06T14:59:07Z</time>
      </trkpt>
      <trkpt lat="45.62898" lon="6.65874">
        <ele>2316.91</ele>
        <time>2018-02-06T14:59:16Z</time>
      </trkpt>
      <trkpt lat="45.62894" lon="6.65879">
        <ele>2317.4</ele>
        <time>2018-02-06T14:59:18Z</time>
      </trkpt>
      <trkpt lat="45.62897" lon="6.65893">
        <ele>2313.55</ele>
        <time>2018-02-06T14:59:22Z</time>
      </trkpt>
      <trkpt lat="45.62896" lon="6.65895">
        <ele>2313.07</ele>
        <time>2018-02-06T14:59:23Z</time>
      </trkpt>
      <trkpt lat="45.629" lon="6.6591">
        <ele>2307.3</ele>
        <time>2018-02-06T14:59:29Z</time>
      </trkpt>
      <trkpt lat="45.62904" lon="6.65933">
        <ele>2303.94</ele>
        <time>2018-02-06T14:59:34Z</time>
      </trkpt>
      <trkpt lat="45.62904" lon="6.65936">
        <ele>2304.42</ele>
        <time>2018-02-06T14:59:35Z</time>
      </trkpt>
      <trkpt lat="45.62905" lon="6.65942">
        <ele>2305.38</ele>
        <time>2018-02-06T14:59:37Z</time>
      </trkpt>
      <trkpt lat="45.62905" lon="6.65942">
        <ele>2304.9</ele>
        <time>2018-02-06T14:59:39Z</time>
      </trkpt>
      <trkpt lat="45.62906" lon="6.65942">
        <ele>2302.98</ele>
        <time>2018-02-06T14:59:46Z</time>
      </trkpt>
      <trkpt lat="45.62905" lon="6.6594">
        <ele>2304.42</ele>
        <time>2018-02-06T14:59:50Z</time>
      </trkpt>
      <trkpt lat="45.62902" lon="6.6594">
        <ele>2303.94</ele>
        <time>2018-02-06T15:00:13Z</time>
      </trkpt>
      <trkpt lat="45.62905" lon="6.65943">
        <ele>2303.94</ele>
        <time>2018-02-06T15:00:16Z</time>
      </trkpt>
      <trkpt lat="45.62904" lon="6.65949">
        <ele>2302.49</ele>
        <time>2018-02-06T15:00:18Z</time>
      </trkpt>
      <trkpt lat="45.629" lon="6.65954">
        <ele>2301.05</ele>
        <time>2018-02-06T15:00:20Z</time>
      </trkpt>
      <trkpt lat="45.62908" lon="6.65964">
        <ele>2299.61</ele>
        <time>2018-02-06T15:00:26Z</time>
      </trkpt>
      <trkpt lat="45.62912" lon="6.65973">
        <ele>2296.25</ele>
        <time>2018-02-06T15:00:28Z</time>
      </trkpt>
      <trkpt lat="45.62908" lon="6.65978">
        <ele>2291.92</ele>
        <time>2018-02-06T15:00:29Z</time>
      </trkpt>
      <trkpt lat="45.62902" lon="6.6598">
        <ele>2290.48</ele>
        <time>2018-02-06T15:00:31Z</time>
      </trkpt>
      <trkpt lat="45.62889" lon="6.65987">
        <ele>2289.52</ele>
        <time>2018-02-06T15:00:39Z</time>
      </trkpt>
      <trkpt lat="45.62897" lon="6.66004">
        <ele>2285.19</ele>
        <time>2018-02-06T15:00:44Z</time>
      </trkpt>
      <trkpt lat="45.62893" lon="6.66015">
        <ele>2279.9</ele>
        <time>2018-02-06T15:00:47Z</time>
      </trkpt>
      <trkpt lat="45.62887" lon="6.66017">
        <ele>2277.98</ele>
        <time>2018-02-06T15:00:49Z</time>
      </trkpt>
      <trkpt lat="45.62875" lon="6.6602">
        <ele>2277.02</ele>
        <time>2018-02-06T15:00:56Z</time>
      </trkpt>
      <trkpt lat="45.6288" lon="6.66031">
        <ele>2276.06</ele>
        <time>2018-02-06T15:01:03Z</time>
      </trkpt>
      <trkpt lat="45.62882" lon="6.66034">
        <ele>2275.1</ele>
        <time>2018-02-06T15:01:09Z</time>
      </trkpt>
      <trkpt lat="45.62875" lon="6.66043">
        <ele>2270.29</ele>
        <time>2018-02-06T15:01:12Z</time>
      </trkpt>
      <trkpt lat="45.6287" lon="6.66041">
        <ele>2267.89</ele>
        <time>2018-02-06T15:01:14Z</time>
      </trkpt>
      <trkpt lat="45.62878" lon="6.66052">
        <ele>2265.96</ele>
        <time>2018-02-06T15:01:20Z</time>
      </trkpt>
      <trkpt lat="45.62879" lon="6.6605">
        <ele>2265.48</ele>
        <time>2018-02-06T15:01:24Z</time>
      </trkpt>
      <trkpt lat="45.62887" lon="6.66063">
        <ele>2262.6</ele>
        <time>2018-02-06T15:01:29Z</time>
      </trkpt>
      <trkpt lat="45.6289" lon="6.66066">
        <ele>2261.64</ele>
        <time>2018-02-06T15:01:32Z</time>
      </trkpt>
      <trkpt lat="45.62892" lon="6.66067">
        <ele>2261.64</ele>
        <time>2018-02-06T15:01:37Z</time>
      </trkpt>
      <trkpt lat="45.62895" lon="6.66071">
        <ele>2259.72</ele>
        <time>2018-02-06T15:01:40Z</time>
      </trkpt>
      <trkpt lat="45.62896" lon="6.66076">
        <ele>2259.24</ele>
        <time>2018-02-06T15:01:42Z</time>
      </trkpt>
      <trkpt lat="45.62893" lon="6.66076">
        <ele>2256.83</ele>
        <time>2018-02-06T15:01:45Z</time>
      </trkpt>
      <trkpt lat="45.6289" lon="6.66076">
        <ele>2256.83</ele>
        <time>2018-02-06T15:01:54Z</time>
      </trkpt>
      <trkpt lat="45.62884" lon="6.66079">
        <ele>2254.43</ele>
        <time>2018-02-06T15:01:56Z</time>
      </trkpt>
      <trkpt lat="45.62881" lon="6.66076">
        <ele>2252.99</ele>
        <time>2018-02-06T15:01:58Z</time>
      </trkpt>
      <trkpt lat="45.62881" lon="6.66077">
        <ele>2252.51</ele>
        <time>2018-02-06T15:02:02Z</time>
      </trkpt>
      <trkpt lat="45.62874" lon="6.66078">
        <ele>2250.1</ele>
        <time>2018-02-06T15:02:08Z</time>
      </trkpt>
      <trkpt lat="45.62876" lon="6.66084">
        <ele>2248.18</ele>
        <time>2018-02-06T15:02:11Z</time>
      </trkpt>
      <trkpt lat="45.6287" lon="6.66088">
        <ele>2243.37</ele>
        <time>2018-02-06T15:02:15Z</time>
      </trkpt>
      <trkpt lat="45.62868" lon="6.66087">
        <ele>2242.89</ele>
        <time>2018-02-06T15:02:17Z</time>
      </trkpt>
      <trkpt lat="45.62866" lon="6.66087">
        <ele>2243.37</ele>
        <time>2018-02-06T15:02:25Z</time>
      </trkpt>
      <trkpt lat="45.62862" lon="6.66089">
        <ele>2241.93</ele>
        <time>2018-02-06T15:02:28Z</time>
      </trkpt>
      <trkpt lat="45.62862" lon="6.6609">
        <ele>2241.45</ele>
        <time>2018-02-06T15:02:30Z</time>
      </trkpt>
      <trkpt lat="45.62865" lon="6.66097">
        <ele>2238.09</ele>
        <time>2018-02-06T15:02:34Z</time>
      </trkpt>
      <trkpt lat="45.62866" lon="6.66098">
        <ele>2238.09</ele>
        <time>2018-02-06T15:02:42Z</time>
      </trkpt>
      <trkpt lat="45.62869" lon="6.66102">
        <ele>2237.13</ele>
        <time>2018-02-06T15:02:45Z</time>
      </trkpt>
      <trkpt lat="45.6286" lon="6.66105">
        <ele>2233.76</ele>
        <time>2018-02-06T15:02:49Z</time>
      </trkpt>
      <trkpt lat="45.62858" lon="6.66106">
        <ele>2232.8</ele>
        <time>2018-02-06T15:02:51Z</time>
      </trkpt>
      <trkpt lat="45.62858" lon="6.66106">
        <ele>2232.8</ele>
        <time>2018-02-06T15:02:53Z</time>
      </trkpt>
      <trkpt lat="45.62855" lon="6.66112">
        <ele>2231.36</ele>
        <time>2018-02-06T15:02:57Z</time>
      </trkpt>
      <trkpt lat="45.62861" lon="6.66116">
        <ele>2227.51</ele>
        <time>2018-02-06T15:02:59Z</time>
      </trkpt>
      <trkpt lat="45.62862" lon="6.66116">
        <ele>2227.03</ele>
        <time>2018-02-06T15:03:00Z</time>
      </trkpt>
      <trkpt lat="45.62861" lon="6.66117">
        <ele>2226.55</ele>
        <time>2018-02-06T15:03:07Z</time>
      </trkpt>
      <trkpt lat="45.62851" lon="6.66127">
        <ele>2221.26</ele>
        <time>2018-02-06T15:03:10Z</time>
      </trkpt>
      <trkpt lat="45.62847" lon="6.66125">
        <ele>2219.82</ele>
        <time>2018-02-06T15:03:12Z</time>
      </trkpt>
      <trkpt lat="45.62846" lon="6.66126">
        <ele>2219.82</ele>
        <time>2018-02-06T15:03:16Z</time>
      </trkpt>
      <trkpt lat="45.62848" lon="6.6613">
        <ele>2218.38</ele>
        <time>2018-02-06T15:03:19Z</time>
      </trkpt>
      <trkpt lat="45.62848" lon="6.66128">
        <ele>2217.9</ele>
        <time>2018-02-06T15:03:32Z</time>
      </trkpt>
      <trkpt lat="45.62855" lon="6.66133">
        <ele>2216.46</ele>
        <time>2018-02-06T15:03:36Z</time>
      </trkpt>
      <trkpt lat="45.62858" lon="6.66136">
        <ele>2215.5</ele>
        <time>2018-02-06T15:03:39Z</time>
      </trkpt>
      <trkpt lat="45.62854" lon="6.66142">
        <ele>2212.13</ele>
        <time>2018-02-06T15:03:43Z</time>
      </trkpt>
      <trkpt lat="45.62847" lon="6.66145">
        <ele>2210.69</ele>
        <time>2018-02-06T15:03:47Z</time>
      </trkpt>
      <trkpt lat="45.62843" lon="6.66145">
        <ele>2210.21</ele>
        <time>2018-02-06T15:03:48Z</time>
      </trkpt>
      <trkpt lat="45.62842" lon="6.66145">
        <ele>2208.77</ele>
        <time>2018-02-06T15:03:50Z</time>
      </trkpt>
      <trkpt lat="45.62839" lon="6.66148">
        <ele>2207.81</ele>
        <time>2018-02-06T15:03:59Z</time>
      </trkpt>
      <trkpt lat="45.62833" lon="6.6615">
        <ele>2206.36</ele>
        <time>2018-02-06T15:04:02Z</time>
      </trkpt>
      <trkpt lat="45.62831" lon="6.66152">
        <ele>2205.88</ele>
        <time>2018-02-06T15:04:05Z</time>
      </trkpt>
      <trkpt lat="45.62838" lon="6.66158">
        <ele>2203</ele>
        <time>2018-02-06T15:04:10Z</time>
      </trkpt>
      <trkpt lat="45.62848" lon="6.66166">
        <ele>2200.59</ele>
        <time>2018-02-06T15:04:17Z</time>
      </trkpt>
      <trkpt lat="45.6284" lon="6.66175">
        <ele>2195.79</ele>
        <time>2018-02-06T15:04:20Z</time>
      </trkpt>
      <trkpt lat="45.62835" lon="6.66179">
        <ele>2194.35</ele>
        <time>2018-02-06T15:04:26Z</time>
      </trkpt>
      <trkpt lat="45.62834" lon="6.66179">
        <ele>2194.35</ele>
        <time>2018-02-06T15:04:28Z</time>
      </trkpt>
      <trkpt lat="45.62828" lon="6.66185">
        <ele>2191.46</ele>
        <time>2018-02-06T15:04:33Z</time>
      </trkpt>
      <trkpt lat="45.62835" lon="6.6619">
        <ele>2188.58</ele>
        <time>2018-02-06T15:04:36Z</time>
      </trkpt>
      <trkpt lat="45.62844" lon="6.66195">
        <ele>2187.14</ele>
        <time>2018-02-06T15:04:42Z</time>
      </trkpt>
      <trkpt lat="45.6284" lon="6.66209">
        <ele>2183.29</ele>
        <time>2018-02-06T15:04:45Z</time>
      </trkpt>
      <trkpt lat="45.62829" lon="6.66214">
        <ele>2179.45</ele>
        <time>2018-02-06T15:04:48Z</time>
      </trkpt>
      <trkpt lat="45.62828" lon="6.66214">
        <ele>2180.41</ele>
        <time>2018-02-06T15:04:49Z</time>
      </trkpt>
      <trkpt lat="45.62827" lon="6.66219">
        <ele>2180.41</ele>
        <time>2018-02-06T15:04:56Z</time>
      </trkpt>
      <trkpt lat="45.62833" lon="6.66224">
        <ele>2178.97</ele>
        <time>2018-02-06T15:05:02Z</time>
      </trkpt>
      <trkpt lat="45.62842" lon="6.6623">
        <ele>2178</ele>
        <time>2018-02-06T15:05:07Z</time>
      </trkpt>
      <trkpt lat="45.62837" lon="6.6624">
        <ele>2174.16</ele>
        <time>2018-02-06T15:05:11Z</time>
      </trkpt>
      <trkpt lat="45.62836" lon="6.6624">
        <ele>2173.68</ele>
        <time>2018-02-06T15:05:12Z</time>
      </trkpt>
      <trkpt lat="45.62827" lon="6.66244">
        <ele>2172.24</ele>
        <time>2018-02-06T15:05:18Z</time>
      </trkpt>
      <trkpt lat="45.62826" lon="6.66249">
        <ele>2171.76</ele>
        <time>2018-02-06T15:05:20Z</time>
      </trkpt>
      <trkpt lat="45.6283" lon="6.6625">
        <ele>2170.31</ele>
        <time>2018-02-06T15:05:21Z</time>
      </trkpt>
      <trkpt lat="45.62832" lon="6.6625">
        <ele>2169.83</ele>
        <time>2018-02-06T15:05:27Z</time>
      </trkpt>
      <trkpt lat="45.62834" lon="6.66252">
        <ele>2169.35</ele>
        <time>2018-02-06T15:05:29Z</time>
      </trkpt>
      <trkpt lat="45.62828" lon="6.66261">
        <ele>2164.55</ele>
        <time>2018-02-06T15:05:32Z</time>
      </trkpt>
      <trkpt lat="45.62824" lon="6.66262">
        <ele>2163.1</ele>
        <time>2018-02-06T15:05:33Z</time>
      </trkpt>
      <trkpt lat="45.62824" lon="6.66266">
        <ele>2162.62</ele>
        <time>2018-02-06T15:05:39Z</time>
      </trkpt>
      <trkpt lat="45.62827" lon="6.66268">
        <ele>2161.18</ele>
        <time>2018-02-06T15:05:48Z</time>
      </trkpt>
      <trkpt lat="45.6283" lon="6.66273">
        <ele>2160.7</ele>
        <time>2018-02-06T15:05:52Z</time>
      </trkpt>
      <trkpt lat="45.6284" lon="6.66279">
        <ele>2159.74</ele>
        <time>2018-02-06T15:05:59Z</time>
      </trkpt>
      <trkpt lat="45.6284" lon="6.66292">
        <ele>2155.41</ele>
        <time>2018-02-06T15:06:02Z</time>
      </trkpt>
      <trkpt lat="45.62841" lon="6.66305">
        <ele>2154.93</ele>
        <time>2018-02-06T15:06:06Z</time>
      </trkpt>
      <trkpt lat="45.62844" lon="6.66306">
        <ele>2154.45</ele>
        <time>2018-02-06T15:06:07Z</time>
      </trkpt>
      <trkpt lat="45.62847" lon="6.66309">
        <ele>2152.53</ele>
        <time>2018-02-06T15:06:08Z</time>
      </trkpt>
      <trkpt lat="45.6285" lon="6.66313">
        <ele>2151.57</ele>
        <time>2018-02-06T15:06:09Z</time>
      </trkpt>
      <trkpt lat="45.62851" lon="6.66315">
        <ele>2150.61</ele>
        <time>2018-02-06T15:06:10Z</time>
      </trkpt>
      <trkpt lat="45.62852" lon="6.66323">
        <ele>2150.13</ele>
        <time>2018-02-06T15:06:11Z</time>
      </trkpt>
      <trkpt lat="45.6286" lon="6.6634">
        <ele>2148.2</ele>
        <time>2018-02-06T15:06:16Z</time>
      </trkpt>
      <trkpt lat="45.62863" lon="6.66339">
        <ele>2148.68</ele>
        <time>2018-02-06T15:06:17Z</time>
      </trkpt>
      <trkpt lat="45.62859" lon="6.66324">
        <ele>2146.76</ele>
        <time>2018-02-06T15:06:20Z</time>
      </trkpt>
      <trkpt lat="45.62859" lon="6.66313">
        <ele>2147.24</ele>
        <time>2018-02-06T15:06:36Z</time>
      </trkpt>
      <trkpt lat="45.62863" lon="6.66324">
        <ele>2144.84</ele>
        <time>2018-02-06T15:06:40Z</time>
      </trkpt>
      <trkpt lat="45.62862" lon="6.66332">
        <ele>2146.28</ele>
        <time>2018-02-06T15:06:54Z</time>
      </trkpt>
      <trkpt lat="45.62863" lon="6.66331">
        <ele>2145.8</ele>
        <time>2018-02-06T15:06:58Z</time>
      </trkpt>
      <trkpt lat="45.62867" lon="6.66329">
        <ele>2144.84</ele>
        <time>2018-02-06T15:07:07Z</time>
      </trkpt>
      <trkpt lat="45.62869" lon="6.66329">
        <ele>2145.32</ele>
        <time>2018-02-06T15:07:22Z</time>
      </trkpt>
      <trkpt lat="45.62875" lon="6.66327">
        <ele>2144.84</ele>
        <time>2018-02-06T15:07:26Z</time>
      </trkpt>
      <trkpt lat="45.62877" lon="6.66331">
        <ele>2142.92</ele>
        <time>2018-02-06T15:07:27Z</time>
      </trkpt>
      <trkpt lat="45.62878" lon="6.66342">
        <ele>2140.99</ele>
        <time>2018-02-06T15:07:29Z</time>
      </trkpt>
      <trkpt lat="45.62879" lon="6.66344">
        <ele>2140.99</ele>
        <time>2018-02-06T15:07:32Z</time>
      </trkpt>
      <trkpt lat="45.62881" lon="6.66344">
        <ele>2141.47</ele>
        <time>2018-02-06T15:07:33Z</time>
      </trkpt>
      <trkpt lat="45.62884" lon="6.66338">
        <ele>2139.55</ele>
        <time>2018-02-06T15:07:35Z</time>
      </trkpt>
      <trkpt lat="45.62895" lon="6.66342">
        <ele>2136.67</ele>
        <time>2018-02-06T15:07:39Z</time>
      </trkpt>
      <trkpt lat="45.62896" lon="6.66349">
        <ele>2133.78</ele>
        <time>2018-02-06T15:07:40Z</time>
      </trkpt>
      <trkpt lat="45.62899" lon="6.66353">
        <ele>2133.78</ele>
        <time>2018-02-06T15:07:41Z</time>
      </trkpt>
      <trkpt lat="45.62903" lon="6.66354">
        <ele>2133.78</ele>
        <time>2018-02-06T15:07:42Z</time>
      </trkpt>
      <trkpt lat="45.62906" lon="6.66352">
        <ele>2130.42</ele>
        <time>2018-02-06T15:07:43Z</time>
      </trkpt>
      <trkpt lat="45.62908" lon="6.66349">
        <ele>2130.9</ele>
        <time>2018-02-06T15:07:50Z</time>
      </trkpt>
      <trkpt lat="45.62908" lon="6.66349">
        <ele>2130.9</ele>
        <time>2018-02-06T15:07:52Z</time>
      </trkpt>
      <trkpt lat="45.62923" lon="6.66359">
        <ele>2127.05</ele>
        <time>2018-02-06T15:07:58Z</time>
      </trkpt>
      <trkpt lat="45.62929" lon="6.66366">
        <ele>2123.21</ele>
        <time>2018-02-06T15:08:00Z</time>
      </trkpt>
      <trkpt lat="45.62932" lon="6.66364">
        <ele>2122.25</ele>
        <time>2018-02-06T15:08:02Z</time>
      </trkpt>
      <trkpt lat="45.62935" lon="6.6637">
        <ele>2120.81</ele>
        <time>2018-02-06T15:08:05Z</time>
      </trkpt>
      <trkpt lat="45.62936" lon="6.66379">
        <ele>2118.88</ele>
        <time>2018-02-06T15:08:07Z</time>
      </trkpt>
      <trkpt lat="45.62936" lon="6.66384">
        <ele>2118.88</ele>
        <time>2018-02-06T15:08:15Z</time>
      </trkpt>
      <trkpt lat="45.62938" lon="6.66382">
        <ele>2118.88</ele>
        <time>2018-02-06T15:08:27Z</time>
      </trkpt>
      <trkpt lat="45.62945" lon="6.66374">
        <ele>2116.48</ele>
        <time>2018-02-06T15:08:31Z</time>
      </trkpt>
      <trkpt lat="45.62948" lon="6.66382">
        <ele>2113.6</ele>
        <time>2018-02-06T15:08:34Z</time>
      </trkpt>
      <trkpt lat="45.62947" lon="6.66382">
        <ele>2113.6</ele>
        <time>2018-02-06T15:08:35Z</time>
      </trkpt>
      <trkpt lat="45.62949" lon="6.66381">
        <ele>2114.56</ele>
        <time>2018-02-06T15:08:57Z</time>
      </trkpt>
      <trkpt lat="45.6296" lon="6.66394">
        <ele>2109.27</ele>
        <time>2018-02-06T15:09:03Z</time>
      </trkpt>
      <trkpt lat="45.62967" lon="6.66405">
        <ele>2105.42</ele>
        <time>2018-02-06T15:09:06Z</time>
      </trkpt>
      <trkpt lat="45.62977" lon="6.66413">
        <ele>2102.06</ele>
        <time>2018-02-06T15:09:09Z</time>
      </trkpt>
      <trkpt lat="45.62984" lon="6.6642">
        <ele>2101.1</ele>
        <time>2018-02-06T15:09:11Z</time>
      </trkpt>
      <trkpt lat="45.62993" lon="6.66424">
        <ele>2098.21</ele>
        <time>2018-02-06T15:09:13Z</time>
      </trkpt>
      <trkpt lat="45.6301" lon="6.66451">
        <ele>2092.93</ele>
        <time>2018-02-06T15:09:19Z</time>
      </trkpt>
      <trkpt lat="45.63012" lon="6.66468">
        <ele>2091</ele>
        <time>2018-02-06T15:09:23Z</time>
      </trkpt>
      <trkpt lat="45.6302" lon="6.66485">
        <ele>2090.04</ele>
        <time>2018-02-06T15:09:37Z</time>
      </trkpt>
      <trkpt lat="45.63024" lon="6.66489">
        <ele>2089.56</ele>
        <time>2018-02-06T15:09:50Z</time>
      </trkpt>
      <trkpt lat="45.63028" lon="6.66489">
        <ele>2090.04</ele>
        <time>2018-02-06T15:09:55Z</time>
      </trkpt>
      <trkpt lat="45.63037" lon="6.6649">
        <ele>2089.08</ele>
        <time>2018-02-06T15:10:07Z</time>
      </trkpt>
      <trkpt lat="45.63041" lon="6.66495">
        <ele>2089.08</ele>
        <time>2018-02-06T15:10:10Z</time>
      </trkpt>
      <trkpt lat="45.63054" lon="6.66508">
        <ele>2086.2</ele>
        <time>2018-02-06T15:10:18Z</time>
      </trkpt>
      <trkpt lat="45.63055" lon="6.66513">
        <ele>2085.72</ele>
        <time>2018-02-06T15:10:27Z</time>
      </trkpt>
      <trkpt lat="45.63059" lon="6.66524">
        <ele>2086.68</ele>
        <time>2018-02-06T15:10:32Z</time>
      </trkpt>
      <trkpt lat="45.63061" lon="6.66527">
        <ele>2085.24</ele>
        <time>2018-02-06T15:10:33Z</time>
      </trkpt>
      <trkpt lat="45.63063" lon="6.66531">
        <ele>2084.76</ele>
        <time>2018-02-06T15:10:34Z</time>
      </trkpt>
      <trkpt lat="45.63066" lon="6.66534">
        <ele>2084.28</ele>
        <time>2018-02-06T15:10:35Z</time>
      </trkpt>
      <trkpt lat="45.63069" lon="6.66537">
        <ele>2083.79</ele>
        <time>2018-02-06T15:10:36Z</time>
      </trkpt>
      <trkpt lat="45.63076" lon="6.66545">
        <ele>2083.31</ele>
        <time>2018-02-06T15:10:38Z</time>
      </trkpt>
      <trkpt lat="45.63079" lon="6.66551">
        <ele>2081.87</ele>
        <time>2018-02-06T15:10:39Z</time>
      </trkpt>
      <trkpt lat="45.63081" lon="6.66557">
        <ele>2079.47</ele>
        <time>2018-02-06T15:10:40Z</time>
      </trkpt>
      <trkpt lat="45.63083" lon="6.6656">
        <ele>2078.51</ele>
        <time>2018-02-06T15:10:42Z</time>
      </trkpt>
      <trkpt lat="45.63084" lon="6.66559">
        <ele>2080.43</ele>
        <time>2018-02-06T15:10:49Z</time>
      </trkpt>
      <trkpt lat="45.63086" lon="6.66565">
        <ele>2080.43</ele>
        <time>2018-02-06T15:11:03Z</time>
      </trkpt>
      <trkpt lat="45.63087" lon="6.66573">
        <ele>2078.51</ele>
        <time>2018-02-06T15:11:05Z</time>
      </trkpt>
      <trkpt lat="45.63087" lon="6.66579">
        <ele>2077.07</ele>
        <time>2018-02-06T15:11:06Z</time>
      </trkpt>
      <trkpt lat="45.63088" lon="6.66584">
        <ele>2075.62</ele>
        <time>2018-02-06T15:11:07Z</time>
      </trkpt>
      <trkpt lat="45.6309" lon="6.66588">
        <ele>2076.1</ele>
        <time>2018-02-06T15:11:08Z</time>
      </trkpt>
      <trkpt lat="45.63091" lon="6.66592">
        <ele>2075.62</ele>
        <time>2018-02-06T15:11:09Z</time>
      </trkpt>
      <trkpt lat="45.63091" lon="6.66596">
        <ele>2073.22</ele>
        <time>2018-02-06T15:11:10Z</time>
      </trkpt>
      <trkpt lat="45.63091" lon="6.666">
        <ele>2072.74</ele>
        <time>2018-02-06T15:11:11Z</time>
      </trkpt>
      <trkpt lat="45.63091" lon="6.66605">
        <ele>2072.74</ele>
        <time>2018-02-06T15:11:12Z</time>
      </trkpt>
      <trkpt lat="45.63093" lon="6.66608">
        <ele>2072.26</ele>
        <time>2018-02-06T15:11:13Z</time>
      </trkpt>
      <trkpt lat="45.63096" lon="6.66609">
        <ele>2073.22</ele>
        <time>2018-02-06T15:11:14Z</time>
      </trkpt>
      <trkpt lat="45.63104" lon="6.66607">
        <ele>2069.86</ele>
        <time>2018-02-06T15:11:17Z</time>
      </trkpt>
      <trkpt lat="45.63105" lon="6.66611">
        <ele>2067.93</ele>
        <time>2018-02-06T15:11:18Z</time>
      </trkpt>
      <trkpt lat="45.63105" lon="6.66612">
        <ele>2068.41</ele>
        <time>2018-02-06T15:11:19Z</time>
      </trkpt>
      <trkpt lat="45.63106" lon="6.66612">
        <ele>2068.41</ele>
        <time>2018-02-06T15:11:34Z</time>
      </trkpt>
      <trkpt lat="45.63106" lon="6.66613">
        <ele>2068.41</ele>
        <time>2018-02-06T15:11:43Z</time>
      </trkpt>
      <trkpt lat="45.63106" lon="6.66616">
        <ele>2067.93</ele>
        <time>2018-02-06T15:11:44Z</time>
      </trkpt>
      <trkpt lat="45.63106" lon="6.66619">
        <ele>2067.45</ele>
        <time>2018-02-06T15:11:45Z</time>
      </trkpt>
      <trkpt lat="45.63108" lon="6.66621">
        <ele>2067.45</ele>
        <time>2018-02-06T15:11:46Z</time>
      </trkpt>
      <trkpt lat="45.63111" lon="6.6662">
        <ele>2066.01</ele>
        <time>2018-02-06T15:11:47Z</time>
      </trkpt>
      <trkpt lat="45.63116" lon="6.66616">
        <ele>2064.57</ele>
        <time>2018-02-06T15:11:49Z</time>
      </trkpt>
      <trkpt lat="45.6312" lon="6.66616">
        <ele>2063.61</ele>
        <time>2018-02-06T15:11:50Z</time>
      </trkpt>
      <trkpt lat="45.63123" lon="6.66621">
        <ele>2061.68</ele>
        <time>2018-02-06T15:11:51Z</time>
      </trkpt>
      <trkpt lat="45.63123" lon="6.66626">
        <ele>2060.24</ele>
        <time>2018-02-06T15:11:52Z</time>
      </trkpt>
      <trkpt lat="45.6312" lon="6.66635">
        <ele>2059.76</ele>
        <time>2018-02-06T15:11:54Z</time>
      </trkpt>
      <trkpt lat="45.6312" lon="6.66639">
        <ele>2058.8</ele>
        <time>2018-02-06T15:11:55Z</time>
      </trkpt>
      <trkpt lat="45.63121" lon="6.66643">
        <ele>2058.8</ele>
        <time>2018-02-06T15:11:56Z</time>
      </trkpt>
      <trkpt lat="45.63123" lon="6.66644">
        <ele>2058.8</ele>
        <time>2018-02-06T15:11:57Z</time>
      </trkpt>
      <trkpt lat="45.63125" lon="6.66643">
        <ele>2058.32</ele>
        <time>2018-02-06T15:11:58Z</time>
      </trkpt>
      <trkpt lat="45.63128" lon="6.66642">
        <ele>2056.4</ele>
        <time>2018-02-06T15:11:59Z</time>
      </trkpt>
      <trkpt lat="45.63131" lon="6.66645">
        <ele>2055.92</ele>
        <time>2018-02-06T15:12:00Z</time>
      </trkpt>
      <trkpt lat="45.63133" lon="6.6665">
        <ele>2054.47</ele>
        <time>2018-02-06T15:12:01Z</time>
      </trkpt>
      <trkpt lat="45.63132" lon="6.66655">
        <ele>2052.55</ele>
        <time>2018-02-06T15:12:02Z</time>
      </trkpt>
      <trkpt lat="45.63131" lon="6.66659">
        <ele>2051.59</ele>
        <time>2018-02-06T15:12:03Z</time>
      </trkpt>
      <trkpt lat="45.63132" lon="6.66662">
        <ele>2051.59</ele>
        <time>2018-02-06T15:12:04Z</time>
      </trkpt>
      <trkpt lat="45.63134" lon="6.66663">
        <ele>2050.63</ele>
        <time>2018-02-06T15:12:05Z</time>
      </trkpt>
      <trkpt lat="45.63136" lon="6.66662">
        <ele>2049.67</ele>
        <time>2018-02-06T15:12:06Z</time>
      </trkpt>
      <trkpt lat="45.63139" lon="6.66663">
        <ele>2048.71</ele>
        <time>2018-02-06T15:12:07Z</time>
      </trkpt>
      <trkpt lat="45.63141" lon="6.66673">
        <ele>2046.78</ele>
        <time>2018-02-06T15:12:09Z</time>
      </trkpt>
      <trkpt lat="45.6314" lon="6.66677">
        <ele>2046.78</ele>
        <time>2018-02-06T15:12:15Z</time>
      </trkpt>
      <trkpt lat="45.63144" lon="6.66689">
        <ele>2043.9</ele>
        <time>2018-02-06T15:12:21Z</time>
      </trkpt>
      <trkpt lat="45.63147" lon="6.66689">
        <ele>2043.9</ele>
        <time>2018-02-06T15:12:22Z</time>
      </trkpt>
      <trkpt lat="45.63159" lon="6.66706">
        <ele>2039.57</ele>
        <time>2018-02-06T15:12:26Z</time>
      </trkpt>
      <trkpt lat="45.63163" lon="6.66706">
        <ele>2039.09</ele>
        <time>2018-02-06T15:12:27Z</time>
      </trkpt>
      <trkpt lat="45.63168" lon="6.66703">
        <ele>2037.65</ele>
        <time>2018-02-06T15:12:29Z</time>
      </trkpt>
      <trkpt lat="45.63179" lon="6.66711">
        <ele>2037.17</ele>
        <time>2018-02-06T15:12:35Z</time>
      </trkpt>
      <trkpt lat="45.63182" lon="6.66708">
        <ele>2035.25</ele>
        <time>2018-02-06T15:12:36Z</time>
      </trkpt>
      <trkpt lat="45.63184" lon="6.66704">
        <ele>2034.29</ele>
        <time>2018-02-06T15:12:37Z</time>
      </trkpt>
      <trkpt lat="45.6319" lon="6.66703">
        <ele>2033.81</ele>
        <time>2018-02-06T15:12:44Z</time>
      </trkpt>
      <trkpt lat="45.6319" lon="6.66704">
        <ele>2034.29</ele>
        <time>2018-02-06T15:12:46Z</time>
      </trkpt>
      <trkpt lat="45.63197" lon="6.66712">
        <ele>2033.33</ele>
        <time>2018-02-06T15:12:51Z</time>
      </trkpt>
      <trkpt lat="45.63203" lon="6.66717">
        <ele>2032.84</ele>
        <time>2018-02-06T15:12:55Z</time>
      </trkpt>
      <trkpt lat="45.63205" lon="6.66714">
        <ele>2033.33</ele>
        <time>2018-02-06T15:13:09Z</time>
      </trkpt>
      <trkpt lat="45.63207" lon="6.66717">
        <ele>2033.33</ele>
        <time>2018-02-06T15:13:28Z</time>
      </trkpt>
      <trkpt lat="45.63208" lon="6.66715">
        <ele>2033.33</ele>
        <time>2018-02-06T15:13:55Z</time>
      </trkpt>
      <trkpt lat="45.63208" lon="6.66714">
        <ele>2034.77</ele>
        <time>2018-02-06T15:14:11Z</time>
      </trkpt>
      <trkpt lat="45.63208" lon="6.66716">
        <ele>2035.73</ele>
        <time>2018-02-06T15:14:23Z</time>
      </trkpt>
      <trkpt lat="45.63203" lon="6.66752">
        <ele>2032.36</ele>
        <time>2018-02-06T15:14:32Z</time>
      </trkpt>
      <trkpt lat="45.63203" lon="6.66756">
        <ele>2032.36</ele>
        <time>2018-02-06T15:14:33Z</time>
      </trkpt>
      <trkpt lat="45.63202" lon="6.66761">
        <ele>2026.12</ele>
        <time>2018-02-06T15:14:35Z</time>
      </trkpt>
      <trkpt lat="45.63202" lon="6.66764">
        <ele>2027.56</ele>
        <time>2018-02-06T15:14:36Z</time>
      </trkpt>
      <trkpt lat="45.63204" lon="6.66806">
        <ele>2025.15</ele>
        <time>2018-02-06T15:14:51Z</time>
      </trkpt>
      <trkpt lat="45.63204" lon="6.6686">
        <ele>2021.31</ele>
        <time>2018-02-06T15:15:04Z</time>
      </trkpt>
      <trkpt lat="45.63205" lon="6.66876">
        <ele>2020.35</ele>
        <time>2018-02-06T15:15:07Z</time>
      </trkpt>
      <trkpt lat="45.63205" lon="6.66881">
        <ele>2020.35</ele>
        <time>2018-02-06T15:15:08Z</time>
      </trkpt>
      <trkpt lat="45.63207" lon="6.66902">
        <ele>2017.94</ele>
        <time>2018-02-06T15:15:13Z</time>
      </trkpt>
      <trkpt lat="45.63209" lon="6.66921">
        <ele>2017.46</ele>
        <time>2018-02-06T15:15:20Z</time>
      </trkpt>
      <trkpt lat="45.63211" lon="6.66921">
        <ele>2016.02</ele>
        <time>2018-02-06T15:15:29Z</time>
      </trkpt>
      <trkpt lat="45.63213" lon="6.66921">
        <ele>2015.06</ele>
        <time>2018-02-06T15:15:43Z</time>
      </trkpt>
      <trkpt lat="45.63214" lon="6.66921">
        <ele>2015.06</ele>
        <time>2018-02-06T15:15:44Z</time>
      </trkpt>
      <trkpt lat="45.63214" lon="6.66921">
        <ele>2012.66</ele>
        <time>2018-02-06T15:15:47Z</time>
      </trkpt>
      <trkpt lat="45.63214" lon="6.66918">
        <ele>2014.1</ele>
        <time>2018-02-06T15:16:06Z</time>
      </trkpt>
      <trkpt lat="45.63214" lon="6.66922">
        <ele>2014.1</ele>
        <time>2018-02-06T15:16:22Z</time>
      </trkpt>
      <trkpt lat="45.63215" lon="6.66921">
        <ele>2013.14</ele>
        <time>2018-02-06T15:16:45Z</time>
      </trkpt>
      <trkpt lat="45.63214" lon="6.66917">
        <ele>2013.62</ele>
        <time>2018-02-06T15:17:08Z</time>
      </trkpt>
    </trkseg>
  </trk>
</gpx>